AFR645 FMEE-LFPO
Flight info
| Callsign | AFR645 |
|---|---|
| Flight time | N/A |
| Altitude | 32000 |
| Route | UVENA2J UVENA UN304 DENLI/N0507F330 UN304 APKAK/N0510F320 UN304 MOGDU/N0503F340 UN304 DWA DCT XADOX DCT KONET/N0500F350 UG650 RASKA/N0501F340 T513 EGMEG/N0494F350 G660 JDW/N0495F340 L677 DARAX/N0486F360 L677 CVO L617 TANSA UL613 KOR DCT TUMBO DCT OVVER DCT RODON DCT VAKSU DCT BAXON/N0476F380 DCT CERVI DCT MOLUS DCT UNKIR DCT DJL |
| Aircraft | B77W/H-SDE1E2E3FGHIJ2J3J4J5M1RWXY/LB1D1 |
Departure
| Time | 2026-04-23 23:58 |
|---|---|
| Airport | Roland Garros Airport (FMEE) |
Arrival
| Time | N/A |
|---|---|
| Airport | Paris-Orly Airport (LFPO) |
| Time | Latitude | Longitude | Altitude | Speed | Heading |
|---|---|---|---|---|---|
| 2026-04-23 23:44 | -20.89049 | 55.51169 | 57 ft | 0 kts | 207° |
| 2026-04-23 23:49 | -20.89034 | 55.51177 | 48 ft | 3 kts | 207° |
| 2026-04-23 23:49 | -20.89016 | 55.51186 | 50 ft | 3 kts | 181° |
| 2026-04-23 23:49 | -20.88996 | 55.51186 | 48 ft | 3 kts | 201° |
| 2026-04-23 23:50 | -20.88979 | 55.51198 | 47 ft | 3 kts | 239° |
| 2026-04-23 23:50 | -20.88972 | 55.51217 | 48 ft | 3 kts | 275° |
| 2026-04-23 23:50 | -20.88977 | 55.51235 | 50 ft | 0 kts | 308° |
| 2026-04-23 23:52 | -20.88959 | 55.51212 | 47 ft | 8 kts | 314° |
| 2026-04-23 23:52 | -20.88887 | 55.51167 | 48 ft | 14 kts | 339° |
| 2026-04-23 23:52 | -20.88793 | 55.51132 | 48 ft | 14 kts | 337° |
| 2026-04-23 23:53 | -20.88724 | 55.51058 | 48 ft | 14 kts | 298° |
| 2026-04-23 23:53 | -20.88693 | 55.50946 | 50 ft | 16 kts | 281° |
| 2026-04-23 23:53 | -20.88670 | 55.50829 | 49 ft | 16 kts | 282° |
| 2026-04-23 23:53 | -20.88651 | 55.50711 | 47 ft | 16 kts | 277° |
| 2026-04-23 23:54 | -20.88621 | 55.50596 | 46 ft | 16 kts | 286° |
| 2026-04-23 23:54 | -20.88587 | 55.50496 | 48 ft | 4 kts | 237° |
| 2026-04-23 23:54 | -20.88600 | 55.50496 | 47 ft | 1 kts | 163° |
| 2026-04-23 23:54 | -20.88607 | 55.50513 | 49 ft | 3 kts | 101° |
| 2026-04-23 23:55 | -20.88610 | 55.50537 | 48 ft | 0 kts | 101° |
| 2026-04-23 23:57 | -20.88612 | 55.50546 | 50 ft | 7 kts | 101° |
| 2026-04-23 23:57 | -20.88672 | 55.50843 | 49 ft | 82 kts | 103° |
| 2026-04-23 23:57 | -20.88853 | 55.51726 | 47 ft | 159 kts | 103° |
| 2026-04-23 23:57 | -20.89149 | 55.53087 | 136 ft | 207 kts | 104° |
| 2026-04-23 23:58 | -20.89461 | 55.54580 | 893 ft | 207 kts | 103° |
| 2026-04-23 23:58 | -20.89748 | 55.56125 | 1657 ft | 215 kts | 101° |
| 2026-04-23 23:58 | -20.89688 | 55.57713 | 2374 ft | 217 kts | 68° |
| 2026-04-23 23:58 | -20.88771 | 55.58975 | 3153 ft | 224 kts | 37° |
| 2026-04-23 23:59 | -20.87260 | 55.59534 | 3671 ft | 240 kts | 1° |
| 2026-04-23 23:59 | -20.85612 | 55.59158 | 4247 ft | 247 kts | 341° |
| 2026-04-23 23:59 | -20.83999 | 55.58470 | 4871 ft | 251 kts | 341° |
| 2026-04-23 23:59 | -20.82347 | 55.57782 | 5521 ft | 255 kts | 341° |
| 2026-04-24 00:00 | -20.80676 | 55.57096 | 6185 ft | 260 kts | 342° |
| 2026-04-24 00:00 | -20.78970 | 55.56403 | 6792 ft | 263 kts | 342° |
| 2026-04-24 00:00 | -20.77257 | 55.55696 | 7388 ft | 265 kts | 341° |
| 2026-04-24 00:00 | -20.75541 | 55.54949 | 7979 ft | 267 kts | 340° |
| 2026-04-24 00:01 | -20.73815 | 55.54191 | 8548 ft | 269 kts | 341° |
| 2026-04-24 00:01 | -20.72076 | 55.53428 | 9107 ft | 271 kts | 341° |
| 2026-04-24 00:01 | -20.70352 | 55.52673 | 9646 ft | 273 kts | 340° |
| 2026-04-24 00:01 | -20.68585 | 55.51901 | 10144 ft | 275 kts | 340° |
| 2026-04-24 00:02 | -20.66805 | 55.51126 | 10586 ft | 278 kts | 341° |
| 2026-04-24 00:02 | -20.65003 | 55.50342 | 11053 ft | 281 kts | 340° |
| 2026-04-24 00:02 | -20.63184 | 55.49550 | 11510 ft | 283 kts | 340° |
| 2026-04-24 00:02 | -20.61346 | 55.48751 | 11932 ft | 288 kts | 340° |
| 2026-04-24 00:03 | -20.59453 | 55.47930 | 12176 ft | 303 kts | 340° |
| 2026-04-24 00:03 | -20.57442 | 55.47057 | 12339 ft | 322 kts | 340° |
| 2026-04-24 00:03 | -20.55297 | 55.46124 | 12490 ft | 341 kts | 339° |
| 2026-04-24 00:03 | -20.53035 | 55.45138 | 12644 ft | 361 kts | 340° |
| 2026-04-24 00:04 | -20.50677 | 55.44110 | 12805 ft | 380 kts | 340° |
| 2026-04-24 00:04 | -20.48178 | 55.43019 | 13102 ft | 394 kts | 339° |
| 2026-04-24 00:04 | -20.45573 | 55.41879 | 13571 ft | 403 kts | 340° |
| 2026-04-24 00:04 | -20.42991 | 55.40751 | 14090 ft | 408 kts | 339° |
| 2026-04-24 00:05 | -20.40354 | 55.39598 | 14731 ft | 409 kts | 339° |
| 2026-04-24 00:05 | -20.37706 | 55.38440 | 15346 ft | 412 kts | 339° |
| 2026-04-24 00:05 | -20.35040 | 55.37276 | 15904 ft | 416 kts | 339° |
| 2026-04-24 00:05 | -20.32359 | 55.36107 | 16574 ft | 417 kts | 339° |
| 2026-04-24 00:06 | -20.29666 | 55.34934 | 17207 ft | 419 kts | 339° |
| 2026-04-24 00:06 | -20.26956 | 55.33753 | 17790 ft | 422 kts | 339° |
| 2026-04-24 00:06 | -20.24233 | 55.32569 | 18352 ft | 425 kts | 339° |
| 2026-04-24 00:06 | -20.21486 | 55.31373 | 18859 ft | 427 kts | 339° |
| 2026-04-24 00:07 | -20.18767 | 55.30189 | 19380 ft | 429 kts | 339° |
| 2026-04-24 00:07 | -20.15958 | 55.28967 | 19881 ft | 432 kts | 339° |
| 2026-04-24 00:07 | -20.13204 | 55.27769 | 20407 ft | 433 kts | 339° |
| 2026-04-24 00:07 | -20.10408 | 55.26554 | 20950 ft | 435 kts | 339° |
| 2026-04-24 00:08 | -20.07579 | 55.25325 | 21288 ft | 442 kts | 339° |
| 2026-04-24 00:08 | -20.04728 | 55.24087 | 21786 ft | 443 kts | 339° |
| 2026-04-24 00:08 | -20.01867 | 55.22846 | 22345 ft | 444 kts | 339° |
| 2026-04-24 00:08 | -19.98983 | 55.21596 | 22717 ft | 449 kts | 339° |
| 2026-04-24 00:09 | -19.96128 | 55.20358 | 23253 ft | 449 kts | 339° |
| 2026-04-24 00:09 | -19.93230 | 55.19101 | 23719 ft | 450 kts | 339° |
| 2026-04-24 00:09 | -19.90310 | 55.17836 | 23987 ft | 456 kts | 339° |
| 2026-04-24 00:09 | -19.87370 | 55.16560 | 24393 ft | 457 kts | 339° |
| 2026-04-24 00:10 | -19.84411 | 55.15278 | 24683 ft | 461 kts | 339° |
| 2026-04-24 00:10 | -19.81422 | 55.13984 | 25002 ft | 464 kts | 338° |
| 2026-04-24 00:10 | -19.78427 | 55.12688 | 25442 ft | 464 kts | 339° |
| 2026-04-24 00:10 | -19.75423 | 55.11390 | 25687 ft | 469 kts | 339° |
| 2026-04-24 00:11 | -19.72420 | 55.10092 | 25999 ft | 471 kts | 339° |
| 2026-04-24 00:11 | -19.69384 | 55.08780 | 26414 ft | 472 kts | 339° |
| 2026-04-24 00:11 | -19.66332 | 55.07462 | 26743 ft | 475 kts | 339° |
| 2026-04-24 00:11 | -19.63258 | 55.06135 | 27005 ft | 478 kts | 339° |
| 2026-04-24 00:12 | -19.60166 | 55.04801 | 27309 ft | 481 kts | 338° |
| 2026-04-24 00:12 | -19.57057 | 55.03459 | 27594 ft | 484 kts | 339° |
| 2026-04-24 00:12 | -19.53937 | 55.02113 | 27973 ft | 484 kts | 339° |
| 2026-04-24 00:12 | -19.50809 | 55.00765 | 28241 ft | 487 kts | 338° |
| 2026-04-24 00:13 | -19.44456 | 54.98029 | 28600 ft | 495 kts | 338° |
| 2026-04-24 00:13 | -19.41264 | 54.96656 | 28909 ft | 496 kts | 339° |
| 2026-04-24 00:13 | -19.38057 | 54.95275 | 29180 ft | 498 kts | 339° |
| 2026-04-24 00:14 | -19.34883 | 54.93910 | 29414 ft | 500 kts | 338° |
| 2026-04-24 00:14 | -19.31653 | 54.92521 | 29628 ft | 502 kts | 338° |
| 2026-04-24 00:14 | -19.28414 | 54.91129 | 29840 ft | 504 kts | 339° |
| 2026-04-24 00:14 | -19.25151 | 54.89727 | 29842 ft | 506 kts | 338° |
| 2026-04-24 00:15 | -19.21886 | 54.88325 | 30082 ft | 506 kts | 338° |
| 2026-04-24 00:15 | -19.18637 | 54.86929 | 30425 ft | 503 kts | 338° |
| 2026-04-24 00:15 | -19.15399 | 54.85540 | 30792 ft | 501 kts | 338° |
| 2026-04-24 00:15 | -19.12181 | 54.84159 | 31124 ft | 499 kts | 338° |
| 2026-04-24 00:16 | -19.08961 | 54.82779 | 31403 ft | 498 kts | 338° |
| 2026-04-24 00:16 | -19.05751 | 54.81403 | 31655 ft | 498 kts | 338° |
| 2026-04-24 00:16 | -19.02574 | 54.80042 | 31848 ft | 500 kts | 338° |
| 2026-04-24 00:16 | -18.99371 | 54.78487 | 31888 ft | 501 kts | 329° |
| 2026-04-24 00:17 | -18.96679 | 54.76249 | 31911 ft | 498 kts | 316° |
| 2026-04-24 00:17 | -18.94210 | 54.73671 | 31907 ft | 501 kts | 315° |
| 2026-04-24 00:17 | -18.89219 | 54.68450 | 31922 ft | 509 kts | 316° |
| 2026-04-24 00:18 | -18.84129 | 54.63310 | 31900 ft | 502 kts | 317° |
| 2026-04-24 00:18 | -18.79060 | 54.58286 | 31905 ft | 500 kts | 317° |
| 2026-04-24 00:19 | -18.73971 | 54.53251 | 31915 ft | 502 kts | 317° |
| 2026-04-24 00:19 | -18.68861 | 54.48184 | 31906 ft | 505 kts | 317° |
| 2026-04-24 00:20 | -18.63755 | 54.43125 | 31900 ft | 509 kts | 317° |
| 2026-04-24 00:20 | -18.58231 | 54.38509 | 31894 ft | 507 kts | 335° |
| 2026-04-24 00:21 | -18.51743 | 54.35573 | 31905 ft | 507 kts | 338° |
| 2026-04-24 00:21 | -18.45260 | 54.32689 | 31901 ft | 505 kts | 336° |
| 2026-04-24 00:22 | -18.38844 | 54.29686 | 31899 ft | 503 kts | 336° |
| 2026-04-24 00:22 | -18.32479 | 54.26653 | 31900 ft | 502 kts | 335° |
| 2026-04-24 00:23 | -18.26113 | 54.23625 | 31894 ft | 504 kts | 336° |
| 2026-04-24 00:23 | -18.20766 | 54.21092 | 31897 ft | 508 kts | 335° |
| 2026-04-24 00:24 | -18.14337 | 54.18047 | 31890 ft | 506 kts | 335° |
| 2026-04-24 00:24 | -18.06883 | 54.14520 | 31890 ft | 504 kts | 335° |
| 2026-04-24 00:25 | -18.01536 | 54.11985 | 31895 ft | 503 kts | 335° |
| 2026-04-24 00:25 | -17.95155 | 54.08958 | 31897 ft | 503 kts | 335° |
| 2026-04-24 00:26 | -17.88786 | 54.05939 | 31898 ft | 501 kts | 335° |
| 2026-04-24 00:26 | -17.82471 | 54.02948 | 31889 ft | 500 kts | 335° |
| 2026-04-24 00:27 | -17.76130 | 53.99949 | 31893 ft | 499 kts | 335° |
| 2026-04-24 00:27 | -17.69767 | 53.96940 | 31894 ft | 506 kts | 335° |
| 2026-04-24 00:28 | -17.63289 | 53.93880 | 31898 ft | 513 kts | 335° |
| 2026-04-24 00:28 | -17.56792 | 53.90814 | 31882 ft | 510 kts | 335° |
| 2026-04-24 00:29 | -17.50325 | 53.87764 | 31884 ft | 508 kts | 335° |
| 2026-04-24 00:29 | -17.43876 | 53.84725 | 31886 ft | 508 kts | 335° |
| 2026-04-24 00:30 | -17.37429 | 53.81689 | 31885 ft | 509 kts | 335° |
| 2026-04-24 00:30 | -17.31008 | 53.78668 | 31900 ft | 506 kts | 335° |
| 2026-04-24 00:31 | -17.24683 | 53.75695 | 31876 ft | 493 kts | 335° |
| 2026-04-24 00:31 | -17.18407 | 53.72746 | 31870 ft | 499 kts | 335° |
| 2026-04-24 00:32 | -17.12000 | 53.69736 | 31888 ft | 509 kts | 335° |
| 2026-04-24 00:32 | -17.05520 | 53.66696 | 31883 ft | 510 kts | 335° |
| 2026-04-24 00:33 | -16.99081 | 53.63680 | 31887 ft | 501 kts | 335° |
| 2026-04-24 00:33 | -16.92778 | 53.60729 | 31869 ft | 492 kts | 335° |
| 2026-04-24 00:34 | -16.86538 | 53.57808 | 31881 ft | 494 kts | 335° |
| 2026-04-24 00:34 | -16.80247 | 53.54863 | 31889 ft | 501 kts | 335° |
| 2026-04-24 00:35 | -16.73871 | 53.51883 | 31883 ft | 502 kts | 335° |
| 2026-04-24 00:35 | -16.67518 | 53.48917 | 31876 ft | 496 kts | 335° |
| 2026-04-24 00:36 | -16.61298 | 53.46015 | 31869 ft | 486 kts | 335° |
| 2026-04-24 00:36 | -16.55102 | 53.43124 | 31885 ft | 490 kts | 334° |
| 2026-04-24 00:37 | -16.48851 | 53.40209 | 31876 ft | 494 kts | 334° |
| 2026-04-24 00:37 | -16.42564 | 53.37280 | 31871 ft | 494 kts | 335° |
| 2026-04-24 00:38 | -16.36280 | 53.34357 | 31879 ft | 493 kts | 334° |
| 2026-04-24 00:38 | -16.30079 | 53.31471 | 31865 ft | 491 kts | 334° |
| 2026-04-24 00:39 | -16.23820 | 53.28559 | 31869 ft | 488 kts | 335° |
| 2026-04-24 00:39 | -16.17658 | 53.25693 | 31874 ft | 488 kts | 334° |
| 2026-04-24 00:40 | -16.11438 | 53.22801 | 31874 ft | 493 kts | 334° |
| 2026-04-24 00:40 | -16.05135 | 53.19875 | 31871 ft | 494 kts | 334° |
| 2026-04-24 00:41 | -15.98884 | 53.16974 | 31863 ft | 489 kts | 334° |
| 2026-04-24 00:41 | -15.92688 | 53.14101 | 31863 ft | 486 kts | 334° |
| 2026-04-24 00:42 | -15.86513 | 53.11239 | 31866 ft | 486 kts | 334° |
| 2026-04-24 00:42 | -15.80330 | 53.08374 | 31869 ft | 487 kts | 334° |
| 2026-04-24 00:43 | -15.74133 | 53.05506 | 31878 ft | 488 kts | 334° |
| 2026-04-24 00:43 | -15.67926 | 53.02635 | 31862 ft | 489 kts | 334° |
| 2026-04-24 00:44 | -15.61752 | 52.99782 | 31853 ft | 489 kts | 334° |
| 2026-04-24 00:44 | -15.55524 | 52.96905 | 31876 ft | 490 kts | 334° |
| 2026-04-24 00:45 | -15.49279 | 52.94022 | 31874 ft | 492 kts | 334° |
| 2026-04-24 00:45 | -15.43021 | 52.91135 | 31863 ft | 492 kts | 334° |
| 2026-04-24 00:46 | -15.36755 | 52.88247 | 31868 ft | 492 kts | 334° |
| 2026-04-24 00:46 | -15.30540 | 52.85384 | 31869 ft | 491 kts | 334° |
| 2026-04-24 00:47 | -15.24295 | 52.82509 | 31868 ft | 491 kts | 334° |
| 2026-04-24 00:47 | -15.18054 | 52.79637 | 31865 ft | 490 kts | 334° |
| 2026-04-24 00:48 | -15.11838 | 52.76780 | 31865 ft | 489 kts | 334° |
| 2026-04-24 00:48 | -15.05593 | 52.73910 | 31859 ft | 490 kts | 334° |
| 2026-04-24 00:49 | -14.99355 | 52.71045 | 31866 ft | 491 kts | 334° |
| 2026-04-24 00:49 | -14.93088 | 52.68169 | 31867 ft | 493 kts | 334° |
| 2026-04-24 00:50 | -14.86798 | 52.65284 | 31867 ft | 495 kts | 334° |
| 2026-04-24 00:50 | -14.80545 | 52.62419 | 31853 ft | 495 kts | 334° |
| 2026-04-24 00:51 | -14.74247 | 52.59535 | 31858 ft | 494 kts | 334° |
| 2026-04-24 00:51 | -14.67968 | 52.56661 | 31860 ft | 492 kts | 334° |
| 2026-04-24 00:52 | -14.61777 | 52.53829 | 31861 ft | 491 kts | 334° |
| 2026-04-24 00:52 | -14.55500 | 52.50959 | 31850 ft | 492 kts | 334° |
| 2026-04-24 00:53 | -14.49233 | 52.48095 | 31869 ft | 494 kts | 334° |
| 2026-04-24 00:53 | -14.42922 | 52.45213 | 31867 ft | 496 kts | 334° |
| 2026-04-24 00:54 | -14.36594 | 52.42326 | 31864 ft | 498 kts | 334° |
| 2026-04-24 00:54 | -14.30252 | 52.39434 | 31860 ft | 499 kts | 334° |
| 2026-04-24 00:55 | -14.23899 | 52.36539 | 31855 ft | 499 kts | 334° |
| 2026-04-24 00:55 | -14.17562 | 52.33653 | 31860 ft | 497 kts | 333° |
| 2026-04-24 00:56 | -14.11292 | 52.30800 | 31851 ft | 494 kts | 333° |
| 2026-04-24 00:56 | -14.05019 | 52.27946 | 31835 ft | 492 kts | 333° |
| 2026-04-24 00:57 | -13.98747 | 52.25094 | 31857 ft | 493 kts | 333° |
| 2026-04-24 00:58 | -13.89291 | 52.20797 | 31855 ft | 496 kts | 333° |
| 2026-04-24 00:58 | -13.82961 | 52.17923 | 31861 ft | 498 kts | 333° |
| 2026-04-24 00:59 | -13.76612 | 52.15043 | 31857 ft | 498 kts | 333° |
| 2026-04-24 00:59 | -13.70272 | 52.12169 | 31851 ft | 498 kts | 333° |
| 2026-04-24 01:00 | -13.63933 | 52.09296 | 31851 ft | 497 kts | 333° |
| 2026-04-24 01:00 | -13.57651 | 52.06451 | 31847 ft | 496 kts | 333° |
| 2026-04-24 01:01 | -13.51356 | 52.03601 | 31838 ft | 494 kts | 333° |
| 2026-04-24 01:01 | -13.45063 | 52.00754 | 31855 ft | 494 kts | 333° |
| 2026-04-24 01:02 | -13.38764 | 51.97907 | 31853 ft | 495 kts | 333° |
| 2026-04-24 01:02 | -13.32439 | 51.95052 | 31854 ft | 497 kts | 333° |
| 2026-04-24 01:03 | -13.26106 | 51.92194 | 31852 ft | 497 kts | 333° |
| 2026-04-24 01:03 | -13.19779 | 51.89341 | 31845 ft | 496 kts | 333° |
| 2026-04-24 01:04 | -13.13521 | 51.86520 | 31843 ft | 494 kts | 333° |
| 2026-04-24 01:04 | -13.07239 | 51.83689 | 31844 ft | 492 kts | 333° |
| 2026-04-24 01:05 | -13.00970 | 51.80865 | 31836 ft | 491 kts | 333° |
| 2026-04-24 01:05 | -12.94701 | 51.78042 | 31846 ft | 492 kts | 334° |
| 2026-04-24 01:06 | -12.88432 | 51.75222 | 31845 ft | 492 kts | 334° |
| 2026-04-24 01:06 | -12.82161 | 51.72403 | 31845 ft | 492 kts | 334° |
| 2026-04-24 01:07 | -12.75899 | 51.69589 | 31847 ft | 491 kts | 334° |
| 2026-04-24 01:07 | -12.69672 | 51.66792 | 31843 ft | 491 kts | 334° |
| 2026-04-24 01:08 | -12.63419 | 51.63985 | 31857 ft | 490 kts | 334° |
| 2026-04-24 01:08 | -12.57182 | 51.61188 | 31836 ft | 487 kts | 334° |
| 2026-04-24 01:09 | -12.50985 | 51.58408 | 31838 ft | 485 kts | 334° |
| 2026-04-24 01:09 | -12.44802 | 51.55637 | 31837 ft | 485 kts | 334° |
| 2026-04-24 01:10 | -12.38597 | 51.52856 | 31850 ft | 487 kts | 334° |
| 2026-04-24 01:10 | -12.32381 | 51.50073 | 31846 ft | 488 kts | 334° |
| 2026-04-24 01:11 | -12.26194 | 51.47304 | 31846 ft | 489 kts | 334° |
| 2026-04-24 01:11 | -12.19963 | 51.44517 | 31844 ft | 488 kts | 334° |
| 2026-04-24 01:12 | -12.13738 | 51.41734 | 31844 ft | 488 kts | 334° |
| 2026-04-24 01:12 | -12.07518 | 51.38956 | 31840 ft | 487 kts | 334° |
| 2026-04-24 01:13 | -12.01304 | 51.36183 | 31849 ft | 486 kts | 334° |
| 2026-04-24 01:13 | -11.96156 | 51.33886 | 31840 ft | 485 kts | 334° |
| 2026-04-24 01:14 | -11.89973 | 51.31128 | 31837 ft | 485 kts | 334° |
| 2026-04-24 01:14 | -11.83786 | 51.28368 | 31841 ft | 485 kts | 334° |
| 2026-04-24 01:15 | -11.77588 | 51.25605 | 31837 ft | 486 kts | 334° |
| 2026-04-24 01:15 | -11.71417 | 51.22856 | 31840 ft | 486 kts | 334° |
| 2026-04-24 01:16 | -11.65220 | 51.20097 | 31832 ft | 486 kts | 334° |
| 2026-04-24 01:16 | -11.59025 | 51.17341 | 31843 ft | 485 kts | 334° |
| 2026-04-24 01:17 | -11.52835 | 51.14587 | 31840 ft | 485 kts | 334° |
| 2026-04-24 01:17 | -11.46645 | 51.11835 | 31838 ft | 485 kts | 334° |
| 2026-04-24 01:18 | -11.40469 | 51.09090 | 31833 ft | 484 kts | 334° |
| 2026-04-24 01:18 | -11.34281 | 51.06342 | 31840 ft | 484 kts | 334° |
| 2026-04-24 01:19 | -11.28147 | 51.03619 | 31840 ft | 484 kts | 334° |
| 2026-04-24 01:19 | -11.21969 | 51.00877 | 31841 ft | 484 kts | 334° |
| 2026-04-24 01:20 | -11.15790 | 50.98136 | 31836 ft | 484 kts | 334° |
| 2026-04-24 01:20 | -11.09612 | 50.95397 | 31826 ft | 484 kts | 334° |
| 2026-04-24 01:21 | -11.03430 | 50.92657 | 31840 ft | 484 kts | 334° |
| 2026-04-24 01:21 | -10.97236 | 50.89914 | 31834 ft | 485 kts | 334° |
| 2026-04-24 01:22 | -10.91078 | 50.87188 | 31832 ft | 485 kts | 334° |
| 2026-04-24 01:22 | -10.84887 | 50.84448 | 31838 ft | 486 kts | 334° |
| 2026-04-24 01:23 | -10.78684 | 50.81704 | 31832 ft | 486 kts | 334° |
| 2026-04-24 01:23 | -10.72473 | 50.78958 | 31838 ft | 487 kts | 334° |
| 2026-04-24 01:24 | -10.66258 | 50.76211 | 31838 ft | 487 kts | 334° |
| 2026-04-24 01:24 | -10.60034 | 50.73462 | 31835 ft | 487 kts | 334° |
| 2026-04-24 01:25 | -10.53813 | 50.70715 | 31834 ft | 487 kts | 334° |
| 2026-04-24 01:25 | -10.47588 | 50.67968 | 31831 ft | 487 kts | 334° |
| 2026-04-24 01:26 | -10.41371 | 50.65224 | 31836 ft | 487 kts | 334° |
| 2026-04-24 01:26 | -10.35154 | 50.62483 | 31830 ft | 487 kts | 334° |
| 2026-04-24 01:27 | -10.28927 | 50.59738 | 31837 ft | 488 kts | 334° |
| 2026-04-24 01:27 | -10.22702 | 50.56995 | 31833 ft | 488 kts | 334° |
| 2026-04-24 01:28 | -10.16466 | 50.54249 | 31829 ft | 488 kts | 334° |
| 2026-04-24 01:28 | -10.10258 | 50.51515 | 31833 ft | 488 kts | 334° |
| 2026-04-24 01:29 | -10.04021 | 50.48770 | 31832 ft | 488 kts | 334° |
| 2026-04-24 01:29 | -9.97795 | 50.46032 | 31832 ft | 488 kts | 334° |
| 2026-04-24 01:30 | -9.91567 | 50.43294 | 31831 ft | 488 kts | 334° |
| 2026-04-24 01:30 | -9.85347 | 50.40561 | 31825 ft | 487 kts | 334° |
| 2026-04-24 01:31 | -9.79114 | 50.37823 | 31833 ft | 488 kts | 334° |
| 2026-04-24 01:31 | -9.72884 | 50.35086 | 31829 ft | 488 kts | 334° |
| 2026-04-24 01:32 | -9.66691 | 50.32366 | 31830 ft | 488 kts | 334° |
| 2026-04-24 01:32 | -9.60457 | 50.29630 | 31825 ft | 488 kts | 334° |
| 2026-04-24 01:33 | -9.54213 | 50.26891 | 31832 ft | 488 kts | 334° |
| 2026-04-24 01:33 | -9.47977 | 50.24156 | 31830 ft | 487 kts | 334° |
| 2026-04-24 01:34 | -9.41791 | 50.21444 | 31823 ft | 487 kts | 334° |
| 2026-04-24 01:34 | -9.35577 | 50.18721 | 31824 ft | 487 kts | 334° |
| 2026-04-24 01:35 | -9.29357 | 50.15996 | 31830 ft | 487 kts | 334° |
| 2026-04-24 01:35 | -9.23132 | 50.13271 | 31818 ft | 487 kts | 334° |
| 2026-04-24 01:36 | -9.16904 | 50.10545 | 31818 ft | 487 kts | 334° |
| 2026-04-24 01:36 | -9.10685 | 50.07824 | 31819 ft | 487 kts | 334° |
| 2026-04-24 01:37 | -9.04466 | 50.05104 | 31831 ft | 487 kts | 334° |
| 2026-04-24 01:37 | -8.98243 | 50.02383 | 31828 ft | 487 kts | 334° |
| 2026-04-24 01:38 | -8.92069 | 49.99685 | 31810 ft | 486 kts | 334° |
| 2026-04-24 01:38 | -8.85853 | 49.96969 | 31828 ft | 486 kts | 334° |
| 2026-04-24 01:39 | -8.79647 | 49.94259 | 31826 ft | 486 kts | 334° |
| 2026-04-24 01:39 | -8.73435 | 49.91547 | 31821 ft | 486 kts | 334° |
| 2026-04-24 01:40 | -8.67218 | 49.88834 | 31820 ft | 486 kts | 335° |
| 2026-04-24 01:40 | -8.61000 | 49.86121 | 31823 ft | 486 kts | 335° |
| 2026-04-24 01:41 | -8.54787 | 49.83412 | 31823 ft | 486 kts | 335° |
| 2026-04-24 01:41 | -8.48609 | 49.80719 | 31823 ft | 486 kts | 335° |
| 2026-04-24 01:42 | -8.42392 | 49.78010 | 31824 ft | 486 kts | 335° |
| 2026-04-24 01:42 | -8.36180 | 49.75304 | 31822 ft | 486 kts | 335° |
| 2026-04-24 01:43 | -8.29962 | 49.72596 | 31822 ft | 486 kts | 335° |
| 2026-04-24 01:43 | -8.23747 | 49.69890 | 31822 ft | 487 kts | 335° |
| 2026-04-24 01:44 | -8.17553 | 49.67194 | 31820 ft | 487 kts | 335° |
| 2026-04-24 01:44 | -8.11323 | 49.64485 | 31818 ft | 488 kts | 335° |
| 2026-04-24 01:45 | -8.05092 | 49.61775 | 31825 ft | 487 kts | 335° |
| 2026-04-24 01:45 | -7.98865 | 49.59068 | 31818 ft | 487 kts | 335° |
| 2026-04-24 01:46 | -7.92648 | 49.56366 | 31817 ft | 486 kts | 335° |
| 2026-04-24 01:46 | -7.86433 | 49.53666 | 31819 ft | 486 kts | 335° |
| 2026-04-24 01:47 | -7.80223 | 49.50969 | 31814 ft | 486 kts | 335° |
| 2026-04-24 01:47 | -7.74055 | 49.48291 | 31820 ft | 486 kts | 335° |
| 2026-04-24 01:48 | -7.67847 | 49.45597 | 31821 ft | 486 kts | 335° |
| 2026-04-24 01:48 | -7.61633 | 49.42900 | 31821 ft | 486 kts | 335° |
| 2026-04-24 01:49 | -7.55419 | 49.40205 | 31819 ft | 486 kts | 335° |
| 2026-04-24 01:49 | -7.49202 | 49.37509 | 31812 ft | 486 kts | 335° |
| 2026-04-24 01:50 | -7.42984 | 49.34814 | 31814 ft | 486 kts | 335° |
| 2026-04-24 01:50 | -7.36770 | 49.32121 | 31815 ft | 486 kts | 335° |
| 2026-04-24 01:51 | -7.30558 | 49.29430 | 31814 ft | 486 kts | 335° |
| 2026-04-24 01:51 | -7.24341 | 49.26737 | 31819 ft | 486 kts | 335° |
| 2026-04-24 01:52 | -7.18121 | 49.24044 | 31812 ft | 486 kts | 335° |
| 2026-04-24 01:52 | -7.11913 | 49.21356 | 31813 ft | 486 kts | 335° |
| 2026-04-24 01:53 | -7.05736 | 49.18683 | 31814 ft | 486 kts | 335° |
| 2026-04-24 01:53 | -6.99520 | 49.15994 | 31812 ft | 486 kts | 335° |
| 2026-04-24 01:54 | -6.93297 | 49.13302 | 31814 ft | 486 kts | 335° |
| 2026-04-24 01:54 | -6.87079 | 49.10613 | 31814 ft | 486 kts | 335° |
| 2026-04-24 01:55 | -6.80864 | 49.07924 | 31819 ft | 486 kts | 335° |
| 2026-04-24 01:55 | -6.74648 | 49.05236 | 31818 ft | 486 kts | 335° |
| 2026-04-24 01:56 | -6.68426 | 49.02546 | 31815 ft | 487 kts | 335° |
| 2026-04-24 01:56 | -6.62197 | 48.99854 | 31815 ft | 487 kts | 335° |
| 2026-04-24 01:57 | -6.55998 | 48.97175 | 31811 ft | 487 kts | 335° |
| 2026-04-24 01:57 | -6.49757 | 48.94479 | 31818 ft | 488 kts | 335° |
| 2026-04-24 01:58 | -6.43515 | 48.91784 | 31817 ft | 488 kts | 335° |
| 2026-04-24 01:58 | -6.37267 | 48.89086 | 31815 ft | 489 kts | 335° |
| 2026-04-24 01:59 | -6.31011 | 48.86386 | 31813 ft | 489 kts | 335° |
| 2026-04-24 01:59 | -6.24748 | 48.83683 | 31813 ft | 489 kts | 336° |
| 2026-04-24 02:00 | -6.18535 | 48.81003 | 31817 ft | 489 kts | 336° |
| 2026-04-24 02:00 | -6.12280 | 48.78305 | 31820 ft | 489 kts | 336° |
| 2026-04-24 02:01 | -6.06035 | 48.75612 | 31821 ft | 488 kts | 336° |
| 2026-04-24 02:01 | -6.00835 | 48.73371 | 31821 ft | 488 kts | 336° |
| 2026-04-24 02:02 | -5.94590 | 48.70679 | 31822 ft | 488 kts | 336° |
| 2026-04-24 02:02 | -5.88350 | 48.67990 | 31821 ft | 488 kts | 336° |
| 2026-04-24 02:03 | -5.78976 | 48.63952 | 31817 ft | 488 kts | 336° |
| 2026-04-24 02:03 | -5.72762 | 48.61276 | 31823 ft | 489 kts | 336° |
| 2026-04-24 02:04 | -5.66512 | 48.58586 | 31822 ft | 489 kts | 336° |
| 2026-04-24 02:04 | -5.60253 | 48.55892 | 31821 ft | 489 kts | 336° |
| 2026-04-24 02:05 | -5.53997 | 48.53200 | 31823 ft | 489 kts | 336° |
| 2026-04-24 02:05 | -5.47741 | 48.50508 | 31824 ft | 489 kts | 336° |
| 2026-04-24 02:06 | -5.41482 | 48.47816 | 31825 ft | 489 kts | 336° |
| 2026-04-24 02:06 | -5.35276 | 48.45147 | 31821 ft | 488 kts | 336° |
| 2026-04-24 02:07 | -5.29028 | 48.42461 | 31820 ft | 488 kts | 336° |
| 2026-04-24 02:07 | -5.22772 | 48.39772 | 31821 ft | 489 kts | 336° |
| 2026-04-24 02:08 | -5.16520 | 48.37085 | 31822 ft | 489 kts | 336° |
| 2026-04-24 02:08 | -5.10265 | 48.34398 | 31819 ft | 489 kts | 336° |
| 2026-04-24 02:09 | -5.04006 | 48.31709 | 31821 ft | 489 kts | 336° |
| 2026-04-24 02:09 | -4.97750 | 48.29022 | 31822 ft | 489 kts | 336° |
| 2026-04-24 02:10 | -4.91494 | 48.26336 | 31823 ft | 489 kts | 336° |
| 2026-04-24 02:10 | -4.85278 | 48.23668 | 31822 ft | 489 kts | 336° |
| 2026-04-24 02:11 | -4.79029 | 48.20986 | 31820 ft | 488 kts | 335° |
| 2026-04-24 02:11 | -4.72784 | 48.18305 | 31823 ft | 488 kts | 335° |
| 2026-04-24 02:12 | -4.66534 | 48.15624 | 31823 ft | 488 kts | 335° |
| 2026-04-24 02:12 | -4.60282 | 48.12942 | 31822 ft | 488 kts | 335° |
| 2026-04-24 02:13 | -4.54031 | 48.10261 | 31824 ft | 488 kts | 335° |
| 2026-04-24 02:13 | -4.47781 | 48.07581 | 31826 ft | 489 kts | 336° |
| 2026-04-24 02:14 | -4.41566 | 48.04916 | 31829 ft | 490 kts | 336° |
| 2026-04-24 02:14 | -4.35296 | 48.02229 | 31829 ft | 490 kts | 336° |
| 2026-04-24 02:15 | -4.29021 | 47.99539 | 31827 ft | 490 kts | 335° |
| 2026-04-24 02:15 | -4.22746 | 47.96849 | 31819 ft | 491 kts | 336° |
| 2026-04-24 02:16 | -4.16492 | 47.94169 | 31826 ft | 491 kts | 336° |
| 2026-04-24 02:16 | -4.10200 | 47.91470 | 31825 ft | 492 kts | 336° |
| 2026-04-24 02:17 | -4.03913 | 47.88772 | 31825 ft | 492 kts | 336° |
| 2026-04-24 02:17 | -3.97609 | 47.86067 | 31828 ft | 492 kts | 336° |
| 2026-04-24 02:18 | -3.91310 | 47.83366 | 31824 ft | 493 kts | 336° |
| 2026-04-24 02:18 | -3.85006 | 47.80662 | 31829 ft | 493 kts | 336° |
| 2026-04-24 02:19 | -3.78693 | 47.77955 | 31826 ft | 494 kts | 336° |
| 2026-04-24 02:19 | -3.72416 | 47.75264 | 31827 ft | 494 kts | 336° |
| 2026-04-24 02:20 | -3.66096 | 47.72555 | 31823 ft | 494 kts | 335° |
| 2026-04-24 02:20 | -3.59770 | 47.69844 | 31829 ft | 494 kts | 335° |
| 2026-04-24 02:21 | -3.53452 | 47.67137 | 31829 ft | 494 kts | 335° |
| 2026-04-24 02:21 | -3.47135 | 47.64430 | 31829 ft | 493 kts | 335° |
| 2026-04-24 02:22 | -3.40827 | 47.61728 | 31833 ft | 493 kts | 335° |
| 2026-04-24 02:22 | -3.34523 | 47.59028 | 31838 ft | 493 kts | 335° |
| 2026-04-24 02:23 | -3.28253 | 47.56342 | 31835 ft | 493 kts | 335° |
| 2026-04-24 02:23 | -3.21951 | 47.53644 | 31833 ft | 492 kts | 335° |
| 2026-04-24 02:24 | -3.15640 | 47.50941 | 31833 ft | 492 kts | 335° |
| 2026-04-24 02:24 | -3.09337 | 47.48242 | 31833 ft | 493 kts | 335° |
| 2026-04-24 02:25 | -3.03034 | 47.45544 | 31837 ft | 492 kts | 335° |
| 2026-04-24 02:25 | -2.96734 | 47.42849 | 31837 ft | 492 kts | 335° |
| 2026-04-24 02:26 | -2.90442 | 47.40160 | 31834 ft | 492 kts | 335° |
| 2026-04-24 02:26 | -2.84148 | 47.37469 | 31830 ft | 492 kts | 335° |
| 2026-04-24 02:27 | -2.77857 | 47.34779 | 31839 ft | 492 kts | 335° |
| 2026-04-24 02:27 | -2.71561 | 47.32087 | 31832 ft | 492 kts | 335° |
| 2026-04-24 02:28 | -2.65305 | 47.29413 | 31839 ft | 492 kts | 335° |
| 2026-04-24 02:28 | -2.59003 | 47.26719 | 31841 ft | 492 kts | 336° |
| 2026-04-24 02:29 | -2.52709 | 47.24029 | 31838 ft | 492 kts | 335° |
| 2026-04-24 02:29 | -2.46410 | 47.21337 | 31833 ft | 492 kts | 335° |
| 2026-04-24 02:30 | -2.40123 | 47.18650 | 31838 ft | 491 kts | 335° |
| 2026-04-24 02:30 | -2.33821 | 47.15957 | 31838 ft | 492 kts | 335° |
| 2026-04-24 02:31 | -2.27568 | 47.13286 | 31838 ft | 492 kts | 336° |
| 2026-04-24 02:31 | -2.21260 | 47.10591 | 31839 ft | 492 kts | 335° |
| 2026-04-24 02:32 | -2.14961 | 47.07900 | 31833 ft | 491 kts | 335° |
| 2026-04-24 02:32 | -2.08671 | 47.05213 | 31837 ft | 491 kts | 335° |
| 2026-04-24 02:33 | -2.02394 | 47.02533 | 31835 ft | 490 kts | 335° |
| 2026-04-24 02:33 | -1.96163 | 46.99872 | 31838 ft | 490 kts | 335° |
| 2026-04-24 02:34 | -1.89888 | 46.97192 | 31841 ft | 489 kts | 335° |
| 2026-04-24 02:34 | -1.83622 | 46.94516 | 31838 ft | 489 kts | 335° |
| 2026-04-24 02:35 | -1.77358 | 46.91842 | 31837 ft | 489 kts | 335° |
| 2026-04-24 02:35 | -1.71142 | 46.89188 | 31838 ft | 489 kts | 335° |
| 2026-04-24 02:36 | -1.64888 | 46.86519 | 31840 ft | 489 kts | 335° |
| 2026-04-24 02:36 | -1.58631 | 46.83848 | 31833 ft | 488 kts | 335° |
| 2026-04-24 02:37 | -1.52381 | 46.81179 | 31835 ft | 488 kts | 335° |
| 2026-04-24 02:37 | -1.46126 | 46.78510 | 31836 ft | 488 kts | 335° |
| 2026-04-24 02:38 | -1.39882 | 46.75845 | 31835 ft | 488 kts | 335° |
| 2026-04-24 02:38 | -1.33644 | 46.73182 | 31837 ft | 488 kts | 335° |
| 2026-04-24 02:39 | -1.27403 | 46.70519 | 31837 ft | 488 kts | 335° |
| 2026-04-24 02:39 | -1.21192 | 46.67868 | 31837 ft | 488 kts | 335° |
| 2026-04-24 02:40 | -1.14941 | 46.65200 | 31834 ft | 488 kts | 335° |
| 2026-04-24 02:40 | -1.08690 | 46.62535 | 31833 ft | 488 kts | 335° |
| 2026-04-24 02:41 | -1.02437 | 46.59874 | 31840 ft | 489 kts | 335° |
| 2026-04-24 02:41 | -0.96177 | 46.57209 | 31840 ft | 489 kts | 335° |
| 2026-04-24 02:42 | -0.89917 | 46.54543 | 31838 ft | 489 kts | 335° |
| 2026-04-24 02:42 | -0.83690 | 46.51892 | 31839 ft | 489 kts | 335° |
| 2026-04-24 02:43 | -0.77425 | 46.49223 | 31838 ft | 490 kts | 335° |
| 2026-04-24 02:43 | -0.71148 | 46.46551 | 31839 ft | 490 kts | 335° |
| 2026-04-24 02:44 | -0.64871 | 46.43877 | 31838 ft | 490 kts | 336° |
| 2026-04-24 02:44 | -0.58596 | 46.41205 | 31839 ft | 490 kts | 336° |
| 2026-04-24 02:45 | -0.52311 | 46.38529 | 31840 ft | 490 kts | 336° |
| 2026-04-24 02:45 | -0.46032 | 46.35856 | 31843 ft | 490 kts | 336° |
| 2026-04-24 02:46 | -0.39754 | 46.33182 | 31838 ft | 490 kts | 336° |
| 2026-04-24 02:46 | -0.33479 | 46.30510 | 31838 ft | 490 kts | 336° |
| 2026-04-24 02:47 | -0.27245 | 46.27855 | 31840 ft | 490 kts | 336° |
| 2026-04-24 02:47 | -0.20970 | 46.25183 | 31838 ft | 490 kts | 336° |
| 2026-04-24 02:48 | -0.14703 | 46.22488 | 31838 ft | 490 kts | 335° |
| 2026-04-24 02:48 | -0.08451 | 46.19741 | 31838 ft | 490 kts | 335° |
| 2026-04-24 02:49 | -0.02206 | 46.16992 | 31839 ft | 490 kts | 335° |
| 2026-04-24 02:49 | 0.03999 | 46.14270 | 31837 ft | 490 kts | 335° |
| 2026-04-24 02:50 | 0.10243 | 46.11534 | 31842 ft | 490 kts | 335° |
| 2026-04-24 02:50 | 0.16494 | 46.08796 | 31844 ft | 490 kts | 335° |
| 2026-04-24 02:51 | 0.21682 | 46.06522 | 31844 ft | 490 kts | 335° |
| 2026-04-24 02:51 | 0.27932 | 46.03784 | 31841 ft | 490 kts | 335° |
| 2026-04-24 02:52 | 0.34180 | 46.01046 | 31841 ft | 490 kts | 335° |
| 2026-04-24 02:52 | 0.40420 | 45.98311 | 31841 ft | 490 kts | 335° |
| 2026-04-24 02:53 | 0.46661 | 45.95576 | 31842 ft | 490 kts | 335° |
| 2026-04-24 02:53 | 0.52902 | 45.92840 | 31843 ft | 490 kts | 335° |
| 2026-04-24 02:54 | 0.59110 | 45.90135 | 31843 ft | 489 kts | 336° |
| 2026-04-24 02:54 | 0.65369 | 45.87452 | 31844 ft | 489 kts | 336° |
| 2026-04-24 02:55 | 0.71627 | 45.84774 | 31850 ft | 489 kts | 336° |
| 2026-04-24 02:55 | 0.77884 | 45.82090 | 31846 ft | 489 kts | 336° |
| 2026-04-24 02:56 | 0.84140 | 45.79403 | 31844 ft | 489 kts | 336° |
| 2026-04-24 02:56 | 0.90396 | 45.76714 | 31851 ft | 490 kts | 336° |
| 2026-04-24 02:57 | 0.96666 | 45.74020 | 31849 ft | 490 kts | 336° |
| 2026-04-24 02:57 | 1.02933 | 45.71328 | 31850 ft | 491 kts | 336° |
| 2026-04-24 02:58 | 1.09215 | 45.68629 | 31846 ft | 491 kts | 336° |
| 2026-04-24 02:58 | 1.15485 | 45.65935 | 31847 ft | 491 kts | 336° |
| 2026-04-24 02:59 | 1.21720 | 45.63256 | 31849 ft | 490 kts | 336° |
| 2026-04-24 02:59 | 1.27984 | 45.60564 | 31849 ft | 489 kts | 336° |
| 2026-04-24 03:00 | 1.34234 | 45.57878 | 31850 ft | 489 kts | 336° |
| 2026-04-24 03:00 | 1.40486 | 45.55191 | 31853 ft | 489 kts | 336° |
| 2026-04-24 03:01 | 1.46731 | 45.52507 | 31853 ft | 488 kts | 336° |
| 2026-04-24 03:01 | 1.52985 | 45.49818 | 31852 ft | 488 kts | 336° |
| 2026-04-24 03:02 | 1.59194 | 45.47150 | 31852 ft | 489 kts | 336° |
| 2026-04-24 03:02 | 1.65438 | 45.44465 | 31855 ft | 489 kts | 336° |
| 2026-04-24 03:03 | 1.71697 | 45.41774 | 31855 ft | 489 kts | 336° |
| 2026-04-24 03:03 | 1.77949 | 45.39086 | 31856 ft | 489 kts | 336° |
| 2026-04-24 03:04 | 1.84213 | 45.36393 | 31855 ft | 489 kts | 336° |
| 2026-04-24 03:04 | 1.90432 | 45.33718 | 31859 ft | 490 kts | 336° |
| 2026-04-24 03:05 | 1.96701 | 45.31021 | 31857 ft | 490 kts | 336° |
| 2026-04-24 03:05 | 2.02928 | 45.28335 | 31858 ft | 490 kts | 335° |
| 2026-04-24 03:06 | 2.09168 | 45.25577 | 31866 ft | 490 kts | 335° |
| 2026-04-24 03:06 | 2.15404 | 45.22800 | 31866 ft | 490 kts | 335° |
| 2026-04-24 03:07 | 2.21641 | 45.20029 | 31867 ft | 491 kts | 335° |
| 2026-04-24 03:07 | 2.27890 | 45.17259 | 31868 ft | 491 kts | 335° |
| 2026-04-24 03:08 | 2.37218 | 45.13127 | 31873 ft | 491 kts | 335° |
| 2026-04-24 03:09 | 2.43473 | 45.10355 | 31878 ft | 491 kts | 335° |
| 2026-04-24 03:09 | 2.49724 | 45.07585 | 31876 ft | 491 kts | 335° |
| 2026-04-24 03:10 | 2.55972 | 45.04816 | 31873 ft | 491 kts | 335° |
| 2026-04-24 03:10 | 2.62219 | 45.02046 | 31877 ft | 491 kts | 335° |
| 2026-04-24 03:11 | 2.68469 | 44.99276 | 31873 ft | 491 kts | 335° |
| 2026-04-24 03:11 | 2.74717 | 44.96505 | 31874 ft | 491 kts | 335° |
| 2026-04-24 03:12 | 2.80930 | 44.93750 | 31877 ft | 491 kts | 335° |
| 2026-04-24 03:12 | 2.87177 | 44.90980 | 31877 ft | 491 kts | 335° |
| 2026-04-24 03:13 | 2.93430 | 44.88206 | 31875 ft | 491 kts | 335° |
| 2026-04-24 03:13 | 2.99684 | 44.85432 | 31879 ft | 491 kts | 335° |
| 2026-04-24 03:14 | 3.05942 | 44.82656 | 31884 ft | 491 kts | 335° |
| 2026-04-24 03:14 | 3.12198 | 44.79880 | 31885 ft | 491 kts | 335° |
| 2026-04-24 03:15 | 3.18452 | 44.77105 | 31883 ft | 491 kts | 335° |
| 2026-04-24 03:15 | 3.24664 | 44.74348 | 31891 ft | 491 kts | 335° |
| 2026-04-24 03:16 | 3.30916 | 44.71572 | 31889 ft | 491 kts | 335° |
| 2026-04-24 03:16 | 3.37160 | 44.68800 | 31893 ft | 490 kts | 335° |
| 2026-04-24 03:17 | 3.43397 | 44.66031 | 31899 ft | 490 kts | 335° |
| 2026-04-24 03:17 | 3.49644 | 44.63257 | 31895 ft | 490 kts | 335° |
| 2026-04-24 03:18 | 3.55838 | 44.60506 | 31901 ft | 490 kts | 335° |
| 2026-04-24 03:18 | 3.62072 | 44.57737 | 31901 ft | 490 kts | 335° |
| 2026-04-24 03:19 | 3.68314 | 44.54963 | 31900 ft | 490 kts | 335° |
| 2026-04-24 03:19 | 3.74546 | 44.52194 | 31902 ft | 490 kts | 335° |
| 2026-04-24 03:20 | 3.80744 | 44.49440 | 31902 ft | 490 kts | 335° |
| 2026-04-24 03:20 | 3.86972 | 44.46672 | 31904 ft | 490 kts | 335° |
| 2026-04-24 03:21 | 3.93202 | 44.43902 | 31902 ft | 490 kts | 335° |
| 2026-04-24 03:21 | 3.99431 | 44.41132 | 31903 ft | 490 kts | 335° |
| 2026-04-24 03:22 | 4.05662 | 44.38361 | 31908 ft | 490 kts | 335° |
| 2026-04-24 03:22 | 4.11893 | 44.35590 | 31910 ft | 490 kts | 335° |
| 2026-04-24 03:23 | 4.18129 | 44.32816 | 31910 ft | 490 kts | 335° |
| 2026-04-24 03:23 | 4.24364 | 44.30041 | 31909 ft | 491 kts | 335° |
| 2026-04-24 03:24 | 4.30607 | 44.27263 | 31911 ft | 491 kts | 335° |
| 2026-04-24 03:24 | 4.36809 | 44.24503 | 31913 ft | 491 kts | 335° |
| 2026-04-24 03:25 | 4.43051 | 44.21724 | 31918 ft | 491 kts | 335° |
| 2026-04-24 03:25 | 4.49291 | 44.18946 | 31914 ft | 491 kts | 335° |
| 2026-04-24 03:26 | 4.55538 | 44.16163 | 31914 ft | 490 kts | 335° |
| 2026-04-24 03:26 | 4.61773 | 44.13386 | 31915 ft | 490 kts | 335° |
| 2026-04-24 03:27 | 4.68011 | 44.10607 | 31919 ft | 490 kts | 335° |
| 2026-04-24 03:27 | 4.74242 | 44.07830 | 31913 ft | 490 kts | 335° |
| 2026-04-24 03:28 | 4.80472 | 44.05053 | 31912 ft | 490 kts | 335° |
| 2026-04-24 03:28 | 4.86713 | 44.02270 | 31914 ft | 490 kts | 335° |
| 2026-04-24 03:29 | 4.92912 | 43.99504 | 31911 ft | 490 kts | 335° |
| 2026-04-24 03:29 | 4.99128 | 43.96689 | 31909 ft | 490 kts | 335° |
| 2026-04-24 03:30 | 5.05338 | 43.93856 | 31904 ft | 490 kts | 335° |
| 2026-04-24 03:30 | 5.11545 | 43.91028 | 31914 ft | 489 kts | 335° |
| 2026-04-24 03:31 | 5.17745 | 43.88208 | 31909 ft | 489 kts | 335° |
| 2026-04-24 03:31 | 5.23955 | 43.85384 | 31907 ft | 489 kts | 335° |
| 2026-04-24 03:32 | 5.30121 | 43.82579 | 31902 ft | 489 kts | 335° |
| 2026-04-24 03:32 | 5.36323 | 43.79756 | 31905 ft | 489 kts | 335° |
| 2026-04-24 03:33 | 5.42525 | 43.76933 | 31906 ft | 490 kts | 335° |
| 2026-04-24 03:33 | 5.48732 | 43.74106 | 31909 ft | 490 kts | 335° |
| 2026-04-24 03:34 | 5.54940 | 43.71279 | 31908 ft | 490 kts | 335° |
| 2026-04-24 03:34 | 5.61153 | 43.68448 | 31902 ft | 490 kts | 335° |
| 2026-04-24 03:35 | 5.67365 | 43.65617 | 31903 ft | 490 kts | 335° |
| 2026-04-24 03:35 | 5.73580 | 43.62794 | 31902 ft | 490 kts | 335° |
| 2026-04-24 03:36 | 5.79745 | 43.59998 | 31899 ft | 489 kts | 335° |
| 2026-04-24 03:36 | 5.85945 | 43.57183 | 31898 ft | 488 kts | 335° |
| 2026-04-24 03:37 | 5.92142 | 43.54368 | 31898 ft | 488 kts | 335° |
| 2026-04-24 03:37 | 5.98327 | 43.51556 | 31899 ft | 488 kts | 335° |
| 2026-04-24 03:38 | 6.04528 | 43.48737 | 31899 ft | 488 kts | 335° |
| 2026-04-24 03:38 | 6.10716 | 43.45924 | 31901 ft | 488 kts | 335° |
| 2026-04-24 03:39 | 6.16907 | 43.43108 | 31898 ft | 488 kts | 335° |
| 2026-04-24 03:39 | 6.23059 | 43.40309 | 31904 ft | 488 kts | 335° |
| 2026-04-24 03:40 | 6.29252 | 43.37491 | 31903 ft | 488 kts | 335° |
| 2026-04-24 03:40 | 6.35441 | 43.34674 | 31910 ft | 488 kts | 335° |
| 2026-04-24 03:41 | 6.41625 | 43.31858 | 31910 ft | 488 kts | 335° |
| 2026-04-24 03:41 | 6.47818 | 43.29038 | 31914 ft | 489 kts | 335° |
| 2026-04-24 03:42 | 6.52973 | 43.26690 | 31912 ft | 489 kts | 335° |
| 2026-04-24 03:42 | 6.59170 | 43.23866 | 31917 ft | 489 kts | 335° |
| 2026-04-24 03:43 | 6.65372 | 43.21040 | 31926 ft | 489 kts | 335° |
| 2026-04-24 03:43 | 6.71574 | 43.18212 | 31921 ft | 489 kts | 335° |
| 2026-04-24 03:44 | 6.77777 | 43.15383 | 31930 ft | 489 kts | 335° |
| 2026-04-24 03:44 | 6.83985 | 43.12551 | 31929 ft | 489 kts | 335° |
| 2026-04-24 03:45 | 6.90183 | 43.09722 | 31936 ft | 489 kts | 335° |
| 2026-04-24 03:45 | 6.96353 | 43.06906 | 31937 ft | 489 kts | 335° |
| 2026-04-24 03:46 | 7.02555 | 43.04082 | 31932 ft | 489 kts | 335° |
| 2026-04-24 03:46 | 7.08754 | 43.01264 | 31940 ft | 488 kts | 335° |
| 2026-04-24 03:47 | 7.14952 | 42.98445 | 31943 ft | 488 kts | 335° |
| 2026-04-24 03:47 | 7.21148 | 42.95624 | 31941 ft | 488 kts | 335° |
| 2026-04-24 03:48 | 7.27293 | 42.92825 | 31943 ft | 488 kts | 335° |
| 2026-04-24 03:48 | 7.33492 | 42.90001 | 31946 ft | 488 kts | 335° |
| 2026-04-24 03:49 | 7.39691 | 42.87175 | 31955 ft | 489 kts | 335° |
| 2026-04-24 03:49 | 7.45891 | 42.84349 | 31953 ft | 489 kts | 335° |
| 2026-04-24 03:50 | 7.52088 | 42.81523 | 31948 ft | 489 kts | 335° |
| 2026-04-24 03:50 | 7.58301 | 42.78689 | 31952 ft | 490 kts | 335° |
| 2026-04-24 03:51 | 7.64518 | 42.75852 | 31945 ft | 490 kts | 335° |
| 2026-04-24 03:51 | 7.70729 | 42.73017 | 31955 ft | 490 kts | 335° |
| 2026-04-24 03:52 | 7.76938 | 42.70182 | 31957 ft | 490 kts | 335° |
| 2026-04-24 03:52 | 7.83159 | 42.67340 | 31957 ft | 490 kts | 335° |
| 2026-04-24 03:53 | 7.89328 | 42.64522 | 31957 ft | 490 kts | 335° |
| 2026-04-24 03:53 | 7.95545 | 42.61680 | 31967 ft | 490 kts | 335° |
| 2026-04-24 03:54 | 8.01760 | 42.58838 | 31962 ft | 489 kts | 335° |
| 2026-04-24 03:54 | 8.07962 | 42.56001 | 31966 ft | 489 kts | 335° |
| 2026-04-24 03:55 | 8.14157 | 42.53166 | 31963 ft | 488 kts | 335° |
| 2026-04-24 03:55 | 8.20303 | 42.50353 | 31975 ft | 488 kts | 335° |
| 2026-04-24 03:56 | 8.26490 | 42.47522 | 31978 ft | 488 kts | 335° |
| 2026-04-24 03:56 | 8.32671 | 42.44694 | 31979 ft | 488 kts | 335° |
| 2026-04-24 03:57 | 8.38872 | 42.41854 | 31978 ft | 488 kts | 335° |
| 2026-04-24 03:57 | 8.45071 | 42.39017 | 31984 ft | 489 kts | 335° |
| 2026-04-24 03:58 | 8.51281 | 42.36186 | 31985 ft | 489 kts | 335° |
| 2026-04-24 03:58 | 8.57451 | 42.33374 | 31992 ft | 489 kts | 335° |
| 2026-04-24 03:59 | 8.63654 | 42.30544 | 31993 ft | 489 kts | 335° |
| 2026-04-24 03:59 | 8.69866 | 42.27707 | 31995 ft | 490 kts | 334° |
| 2026-04-24 04:00 | 8.76077 | 42.24869 | 32002 ft | 490 kts | 334° |
| 2026-04-24 04:00 | 8.82301 | 42.22025 | 32003 ft | 490 kts | 334° |
| 2026-04-24 04:01 | 8.88525 | 42.19180 | 32015 ft | 490 kts | 334° |
| 2026-04-24 04:01 | 8.94706 | 42.16353 | 32015 ft | 491 kts | 334° |
| 2026-04-24 04:02 | 9.00927 | 42.13506 | 32013 ft | 491 kts | 334° |
| 2026-04-24 04:02 | 9.07160 | 42.10654 | 32023 ft | 491 kts | 334° |
| 2026-04-24 04:03 | 9.13395 | 42.07799 | 32030 ft | 492 kts | 334° |
| 2026-04-24 04:03 | 9.19629 | 42.04943 | 32033 ft | 492 kts | 334° |
| 2026-04-24 04:04 | 9.25869 | 42.02084 | 32036 ft | 492 kts | 334° |
| 2026-04-24 04:04 | 9.32119 | 41.99219 | 32020 ft | 492 kts | 334° |
| 2026-04-24 04:05 | 9.38346 | 41.96363 | 32029 ft | 491 kts | 334° |
| 2026-04-24 04:05 | 9.44576 | 41.93505 | 32016 ft | 491 kts | 334° |
| 2026-04-24 04:06 | 9.50758 | 41.90668 | 32001 ft | 490 kts | 334° |
| 2026-04-24 04:06 | 9.56972 | 41.87814 | 32000 ft | 490 kts | 334° |
| 2026-04-24 04:07 | 9.63199 | 41.84953 | 31970 ft | 490 kts | 334° |
| 2026-04-24 04:07 | 9.69366 | 41.82001 | 31969 ft | 490 kts | 332° |
| 2026-04-24 04:08 | 9.75460 | 41.78892 | 31946 ft | 490 kts | 332° |
| 2026-04-24 04:08 | 9.81514 | 41.75794 | 31936 ft | 491 kts | 332° |
| 2026-04-24 04:09 | 9.87632 | 41.72691 | 31916 ft | 491 kts | 332° |
| 2026-04-24 04:09 | 9.93761 | 41.69599 | 31917 ft | 492 kts | 332° |
| 2026-04-24 04:10 | 9.99892 | 41.66506 | 31910 ft | 493 kts | 332° |
| 2026-04-24 04:10 | 10.06037 | 41.63405 | 31906 ft | 493 kts | 332° |
| 2026-04-24 04:11 | 10.15265 | 41.58742 | 31906 ft | 494 kts | 332° |
| 2026-04-24 04:11 | 10.21375 | 41.55653 | 31896 ft | 494 kts | 332° |
| 2026-04-24 04:12 | 10.27541 | 41.52535 | 31905 ft | 494 kts | 332° |
| 2026-04-24 04:12 | 10.33697 | 41.49420 | 31904 ft | 495 kts | 332° |
| 2026-04-24 04:13 | 10.39875 | 41.46293 | 31905 ft | 495 kts | 332° |
| 2026-04-24 04:13 | 10.46007 | 41.43188 | 31905 ft | 495 kts | 332° |
| 2026-04-24 04:14 | 10.52181 | 41.40060 | 31910 ft | 495 kts | 332° |
| 2026-04-24 04:14 | 10.58346 | 41.36935 | 31899 ft | 495 kts | 332° |
| 2026-04-24 04:15 | 10.64520 | 41.33804 | 31902 ft | 495 kts | 332° |
| 2026-04-24 04:15 | 10.70676 | 41.30681 | 31906 ft | 494 kts | 332° |
| 2026-04-24 04:16 | 10.76797 | 41.27574 | 31902 ft | 494 kts | 332° |
| 2026-04-24 04:16 | 10.82948 | 41.24451 | 31901 ft | 494 kts | 331° |
| 2026-04-24 04:17 | 10.89099 | 41.21326 | 31905 ft | 494 kts | 331° |
| 2026-04-24 04:17 | 10.95248 | 41.18200 | 31899 ft | 494 kts | 331° |
| 2026-04-24 04:18 | 11.01397 | 41.15073 | 31904 ft | 494 kts | 331° |
| 2026-04-24 04:18 | 11.07541 | 41.11948 | 31898 ft | 494 kts | 331° |
| 2026-04-24 04:19 | 11.13652 | 41.08838 | 31898 ft | 493 kts | 331° |
| 2026-04-24 04:19 | 11.19790 | 41.05712 | 31899 ft | 493 kts | 331° |
| 2026-04-24 04:20 | 11.25937 | 41.02580 | 31886 ft | 493 kts | 331° |
| 2026-04-24 04:20 | 11.32073 | 40.99453 | 31898 ft | 493 kts | 331° |
| 2026-04-24 04:21 | 11.38202 | 40.96327 | 31899 ft | 493 kts | 331° |
| 2026-04-24 04:21 | 11.44332 | 40.93200 | 31900 ft | 492 kts | 331° |
| 2026-04-24 04:22 | 11.50455 | 40.90074 | 31876 ft | 491 kts | 331° |
| 2026-04-24 04:22 | 11.56524 | 40.86975 | 31892 ft | 491 kts | 331° |
| 2026-04-24 04:23 | 11.62637 | 40.83851 | 31902 ft | 491 kts | 331° |
| 2026-04-24 04:23 | 11.68753 | 40.80724 | 31898 ft | 492 kts | 331° |
| 2026-04-24 04:24 | 11.74883 | 40.77589 | 31901 ft | 492 kts | 330° |
| 2026-04-24 04:24 | 11.80998 | 40.74460 | 31890 ft | 491 kts | 330° |
| 2026-04-24 04:25 | 11.87110 | 40.71331 | 31900 ft | 490 kts | 330° |
| 2026-04-24 04:25 | 11.93206 | 40.68208 | 31896 ft | 490 kts | 330° |
| 2026-04-24 04:26 | 11.99261 | 40.65105 | 31904 ft | 490 kts | 330° |
| 2026-04-24 04:26 | 12.05353 | 40.61981 | 31906 ft | 489 kts | 330° |
| 2026-04-24 04:27 | 12.11431 | 40.58863 | 31905 ft | 488 kts | 330° |
| 2026-04-24 04:27 | 12.17501 | 40.55747 | 31900 ft | 488 kts | 330° |
| 2026-04-24 04:28 | 12.23573 | 40.52628 | 31902 ft | 488 kts | 330° |
| 2026-04-24 04:28 | 12.29642 | 40.49510 | 31906 ft | 488 kts | 330° |
| 2026-04-24 04:29 | 12.35716 | 40.46387 | 31893 ft | 489 kts | 330° |
| 2026-04-24 04:29 | 12.41786 | 40.43264 | 31888 ft | 488 kts | 330° |
| 2026-04-24 04:30 | 12.47687 | 40.39883 | 31882 ft | 484 kts | 322° |
| 2026-04-24 04:30 | 12.53144 | 40.35850 | 31890 ft | 483 kts | 321° |
| 2026-04-24 04:31 | 12.57670 | 40.32485 | 31889 ft | 484 kts | 321° |
| 2026-04-24 04:31 | 12.63131 | 40.28453 | 31898 ft | 484 kts | 321° |
| 2026-04-24 04:32 | 12.68599 | 40.24436 | 31898 ft | 484 kts | 321° |
| 2026-04-24 04:32 | 12.74083 | 40.20412 | 31906 ft | 485 kts | 321° |
| 2026-04-24 04:33 | 12.79567 | 40.16384 | 31907 ft | 485 kts | 321° |
| 2026-04-24 04:33 | 12.85018 | 40.12377 | 31904 ft | 485 kts | 321° |
| 2026-04-24 04:34 | 12.90492 | 40.08350 | 31920 ft | 484 kts | 321° |
| 2026-04-24 04:34 | 12.95968 | 40.04325 | 31925 ft | 483 kts | 321° |
| 2026-04-24 04:35 | 13.01397 | 40.00322 | 31941 ft | 483 kts | 321° |
| 2026-04-24 04:35 | 13.06859 | 39.96299 | 31935 ft | 483 kts | 321° |
| 2026-04-24 04:36 | 13.12322 | 39.92274 | 31973 ft | 484 kts | 321° |
| 2026-04-24 04:36 | 13.17801 | 39.88228 | 31957 ft | 486 kts | 321° |
| 2026-04-24 04:37 | 13.23293 | 39.84175 | 31986 ft | 486 kts | 321° |
| 2026-04-24 04:37 | 13.28791 | 39.80120 | 31988 ft | 487 kts | 321° |
| 2026-04-24 04:38 | 13.34299 | 39.76048 | 31982 ft | 488 kts | 321° |
| 2026-04-24 04:38 | 13.39823 | 39.71964 | 32006 ft | 489 kts | 321° |
| 2026-04-24 04:39 | 13.45305 | 39.67909 | 32004 ft | 489 kts | 321° |
| 2026-04-24 04:39 | 13.50821 | 39.63828 | 32025 ft | 488 kts | 321° |
| 2026-04-24 04:40 | 13.56335 | 39.59743 | 32027 ft | 488 kts | 321° |
| 2026-04-24 04:40 | 13.61846 | 39.55660 | 32039 ft | 488 kts | 321° |
| 2026-04-24 04:41 | 13.67359 | 39.51573 | 32040 ft | 488 kts | 321° |
| 2026-04-24 04:41 | 13.72863 | 39.47490 | 32036 ft | 488 kts | 321° |
| 2026-04-24 04:42 | 13.78368 | 39.43403 | 32034 ft | 488 kts | 321° |
| 2026-04-24 04:42 | 13.83876 | 39.39312 | 32027 ft | 487 kts | 321° |
| 2026-04-24 04:43 | 13.89368 | 39.35230 | 32030 ft | 487 kts | 321° |
| 2026-04-24 04:43 | 13.94863 | 39.31144 | 32036 ft | 488 kts | 320° |
| 2026-04-24 04:44 | 14.00337 | 39.27071 | 32002 ft | 488 kts | 320° |
| 2026-04-24 04:44 | 14.05844 | 39.22970 | 32009 ft | 488 kts | 320° |
| 2026-04-24 04:45 | 14.11349 | 39.18871 | 31998 ft | 488 kts | 320° |
| 2026-04-24 04:45 | 14.16854 | 39.14767 | 32018 ft | 488 kts | 320° |
| 2026-04-24 04:46 | 14.22373 | 39.10649 | 32004 ft | 489 kts | 320° |
| 2026-04-24 04:46 | 14.27884 | 39.06534 | 32003 ft | 489 kts | 320° |
| 2026-04-24 04:47 | 14.33403 | 39.02413 | 31993 ft | 490 kts | 320° |
| 2026-04-24 04:47 | 14.38894 | 38.98309 | 31990 ft | 490 kts | 320° |
| 2026-04-24 04:48 | 14.44423 | 38.94175 | 31996 ft | 490 kts | 320° |
| 2026-04-24 04:48 | 14.50449 | 38.90875 | 31996 ft | 499 kts | 339° |
| 2026-04-24 04:49 | 14.57367 | 38.89799 | 31982 ft | 509 kts | 356° |
| 2026-04-24 04:49 | 14.64458 | 38.89904 | 31997 ft | 511 kts | 357° |
| 2026-04-24 04:50 | 14.71569 | 38.90011 | 31972 ft | 512 kts | 356° |
| 2026-04-24 04:50 | 14.78687 | 38.90046 | 31995 ft | 512 kts | 356° |
| 2026-04-24 04:51 | 14.85815 | 38.90050 | 31999 ft | 512 kts | 356° |
| 2026-04-24 04:51 | 14.92951 | 38.90054 | 31997 ft | 511 kts | 356° |
| 2026-04-24 04:52 | 15.00029 | 38.90062 | 31984 ft | 511 kts | 356° |
| 2026-04-24 04:52 | 15.07138 | 38.90072 | 31999 ft | 510 kts | 356° |
| 2026-04-24 04:53 | 15.14235 | 38.90082 | 31987 ft | 510 kts | 355° |
| 2026-04-24 04:53 | 15.21334 | 38.90091 | 31978 ft | 509 kts | 356° |
| 2026-04-24 04:54 | 15.28403 | 38.90100 | 31986 ft | 508 kts | 355° |
| 2026-04-24 04:54 | 15.35498 | 38.90263 | 31975 ft | 510 kts | 358° |
| 2026-04-24 04:55 | 15.42592 | 38.90561 | 31973 ft | 510 kts | 358° |
| 2026-04-24 04:55 | 15.49644 | 38.90850 | 31964 ft | 510 kts | 357° |
| 2026-04-24 04:56 | 15.56736 | 38.91114 | 31918 ft | 508 kts | 357° |
| 2026-04-24 04:56 | 15.63805 | 38.91364 | 31971 ft | 509 kts | 357° |
| 2026-04-24 04:57 | 15.70887 | 38.91614 | 31944 ft | 509 kts | 357° |
| 2026-04-24 04:57 | 15.77962 | 38.91863 | 31927 ft | 510 kts | 357° |
| 2026-04-24 04:58 | 15.85068 | 38.92117 | 31928 ft | 511 kts | 357° |
| 2026-04-24 04:58 | 15.92194 | 38.92372 | 31923 ft | 512 kts | 357° |
| 2026-04-24 04:59 | 15.99268 | 38.92627 | 31903 ft | 511 kts | 357° |
| 2026-04-24 04:59 | 16.06373 | 38.92882 | 31905 ft | 510 kts | 357° |
| 2026-04-24 05:00 | 16.13463 | 38.93135 | 31900 ft | 509 kts | 357° |
| 2026-04-24 05:00 | 16.20541 | 38.93389 | 31908 ft | 508 kts | 357° |
| 2026-04-24 05:01 | 16.27609 | 38.93644 | 31899 ft | 507 kts | 357° |
| 2026-04-24 05:01 | 16.34666 | 38.93896 | 31874 ft | 506 kts | 357° |
| 2026-04-24 05:02 | 16.41707 | 38.94149 | 31875 ft | 506 kts | 357° |
| 2026-04-24 05:02 | 16.48736 | 38.94402 | 31886 ft | 505 kts | 357° |
| 2026-04-24 05:03 | 16.55726 | 38.94653 | 31868 ft | 505 kts | 357° |
| 2026-04-24 05:03 | 16.62744 | 38.94906 | 31866 ft | 504 kts | 357° |
| 2026-04-24 05:04 | 16.69760 | 38.95158 | 31863 ft | 504 kts | 357° |
| 2026-04-24 05:04 | 16.76779 | 38.95411 | 31864 ft | 505 kts | 357° |
| 2026-04-24 05:05 | 16.83811 | 38.95665 | 31861 ft | 506 kts | 357° |
| 2026-04-24 05:05 | 16.90863 | 38.95920 | 31862 ft | 507 kts | 357° |
| 2026-04-24 05:06 | 16.97927 | 38.96175 | 31855 ft | 508 kts | 357° |
| 2026-04-24 05:06 | 17.04993 | 38.96431 | 31859 ft | 509 kts | 357° |
| 2026-04-24 05:07 | 17.12067 | 38.96687 | 31850 ft | 509 kts | 357° |
| 2026-04-24 05:07 | 17.19141 | 38.96944 | 31851 ft | 508 kts | 357° |
| 2026-04-24 05:08 | 17.26221 | 38.97201 | 31851 ft | 508 kts | 357° |
| 2026-04-24 05:08 | 17.33284 | 38.97457 | 31847 ft | 508 kts | 357° |
| 2026-04-24 05:09 | 17.40358 | 38.97714 | 31841 ft | 508 kts | 357° |
| 2026-04-24 05:09 | 17.47428 | 38.97971 | 31835 ft | 508 kts | 357° |
| 2026-04-24 05:10 | 17.54498 | 38.98227 | 31854 ft | 508 kts | 356° |
| 2026-04-24 05:10 | 17.61547 | 38.98483 | 31848 ft | 510 kts | 356° |
| 2026-04-24 05:11 | 17.68641 | 38.98741 | 31848 ft | 510 kts | 356° |
| 2026-04-24 05:11 | 17.75744 | 38.98999 | 31837 ft | 511 kts | 356° |
| 2026-04-24 05:12 | 17.82871 | 38.99260 | 31857 ft | 512 kts | 356° |
| 2026-04-24 05:12 | 17.89989 | 38.99520 | 31839 ft | 512 kts | 356° |
| 2026-04-24 05:13 | 18.00669 | 38.99909 | 31830 ft | 512 kts | 356° |
| 2026-04-24 05:14 | 18.07800 | 39.00170 | 31855 ft | 512 kts | 356° |
| 2026-04-24 05:14 | 18.14889 | 39.00430 | 31837 ft | 512 kts | 355° |
| 2026-04-24 05:15 | 18.22015 | 39.00742 | 31836 ft | 512 kts | 356° |
| 2026-04-24 05:15 | 18.29138 | 39.01153 | 31838 ft | 512 kts | 357° |
| 2026-04-24 05:16 | 18.36253 | 39.01567 | 31851 ft | 511 kts | 356° |
| 2026-04-24 05:16 | 18.43310 | 39.01962 | 31837 ft | 511 kts | 356° |
| 2026-04-24 05:17 | 18.50407 | 39.02353 | 31834 ft | 511 kts | 356° |
| 2026-04-24 05:17 | 18.57503 | 39.02744 | 31836 ft | 511 kts | 356° |
| 2026-04-24 05:18 | 18.64610 | 39.03136 | 31847 ft | 511 kts | 356° |
| 2026-04-24 05:18 | 18.71712 | 39.03529 | 31838 ft | 511 kts | 356° |
| 2026-04-24 05:19 | 18.78824 | 39.03923 | 31839 ft | 511 kts | 356° |
| 2026-04-24 05:19 | 18.85935 | 39.04318 | 31839 ft | 512 kts | 356° |
| 2026-04-24 05:20 | 18.93050 | 39.04713 | 31842 ft | 512 kts | 356° |
| 2026-04-24 05:20 | 18.98969 | 39.05042 | 31839 ft | 512 kts | 356° |
| 2026-04-24 05:21 | 19.07228 | 39.05500 | 31839 ft | 511 kts | 356° |
| 2026-04-24 05:21 | 19.14236 | 39.05133 | 31852 ft | 500 kts | 345° |
| 2026-04-24 05:22 | 19.19850 | 39.03850 | 31839 ft | 493 kts | 338° |
| 2026-04-24 05:22 | 19.26462 | 39.01912 | 31842 ft | 493 kts | 338° |
| 2026-04-24 05:23 | 19.33085 | 38.99979 | 31839 ft | 494 kts | 338° |
| 2026-04-24 05:23 | 19.39727 | 38.98072 | 31838 ft | 495 kts | 338° |
| 2026-04-24 05:24 | 19.46381 | 38.96174 | 31846 ft | 495 kts | 338° |
| 2026-04-24 05:24 | 19.53041 | 38.94274 | 31838 ft | 496 kts | 338° |
| 2026-04-24 05:25 | 19.59710 | 38.92369 | 31838 ft | 496 kts | 338° |
| 2026-04-24 05:25 | 19.66375 | 38.90462 | 31838 ft | 496 kts | 338° |
| 2026-04-24 05:26 | 19.72992 | 38.88566 | 31845 ft | 496 kts | 338° |
| 2026-04-24 05:26 | 19.79669 | 38.86651 | 31836 ft | 497 kts | 338° |
| 2026-04-24 05:27 | 19.86343 | 38.84737 | 31839 ft | 497 kts | 338° |
| 2026-04-24 05:27 | 19.93038 | 38.82815 | 31839 ft | 498 kts | 338° |
| 2026-04-24 05:28 | 19.99726 | 38.80892 | 31847 ft | 498 kts | 338° |
| 2026-04-24 05:28 | 20.06425 | 38.78965 | 31837 ft | 498 kts | 338° |
| 2026-04-24 05:29 | 20.13130 | 38.77035 | 31831 ft | 498 kts | 338° |
| 2026-04-24 05:29 | 20.19786 | 38.75117 | 31838 ft | 498 kts | 338° |
| 2026-04-24 05:30 | 20.26478 | 38.73187 | 31835 ft | 498 kts | 338° |
| 2026-04-24 05:30 | 20.33184 | 38.71251 | 31839 ft | 499 kts | 338° |
| 2026-04-24 05:31 | 20.39893 | 38.69312 | 31838 ft | 500 kts | 338° |
| 2026-04-24 05:31 | 20.46624 | 38.67366 | 31833 ft | 501 kts | 338° |
| 2026-04-24 05:32 | 20.53358 | 38.65417 | 31839 ft | 501 kts | 338° |
| 2026-04-24 05:32 | 20.60101 | 38.63463 | 31836 ft | 503 kts | 338° |
| 2026-04-24 05:33 | 20.66816 | 38.61516 | 31832 ft | 504 kts | 338° |
| 2026-04-24 05:33 | 20.73592 | 38.59549 | 31833 ft | 505 kts | 338° |
| 2026-04-24 05:34 | 20.83882 | 38.57077 | 31838 ft | 517 kts | 355° |
| 2026-04-24 05:34 | 20.87485 | 38.57573 | 31844 ft | 529 kts | 10° |
| 2026-04-24 05:34 | 20.90941 | 38.59043 | 31827 ft | 540 kts | 27° |
| 2026-04-24 05:35 | 20.97278 | 38.63381 | 31837 ft | 543 kts | 29° |
| 2026-04-24 05:35 | 21.03684 | 38.67720 | 31832 ft | 546 kts | 28° |
| 2026-04-24 05:36 | 21.10170 | 38.72002 | 31834 ft | 548 kts | 28° |
| 2026-04-24 05:36 | 21.16664 | 38.76260 | 31813 ft | 547 kts | 28° |
| 2026-04-24 05:37 | 21.23109 | 38.80495 | 31816 ft | 545 kts | 28° |
| 2026-04-24 05:37 | 21.29568 | 38.84751 | 31832 ft | 544 kts | 28° |
| 2026-04-24 05:38 | 21.36014 | 38.89004 | 31810 ft | 543 kts | 28° |
| 2026-04-24 05:38 | 21.42451 | 38.93256 | 31809 ft | 543 kts | 28° |
| 2026-04-24 05:39 | 21.48882 | 38.97507 | 31808 ft | 543 kts | 28° |
| 2026-04-24 05:39 | 21.55317 | 39.01766 | 31810 ft | 544 kts | 28° |
| 2026-04-24 05:40 | 21.61725 | 39.06013 | 31810 ft | 545 kts | 28° |
| 2026-04-24 05:40 | 21.68341 | 39.09840 | 31798 ft | 533 kts | 11° |
| 2026-04-24 05:41 | 21.71956 | 39.10471 | 31818 ft | 521 kts | 356° |
| 2026-04-24 05:41 | 21.75536 | 39.10226 | 31810 ft | 512 kts | 343° |
| 2026-04-24 05:41 | 21.78911 | 39.09187 | 31803 ft | 497 kts | 330° |
| 2026-04-24 05:41 | 21.82086 | 39.07713 | 31819 ft | 497 kts | 330° |
| 2026-04-24 05:42 | 21.88498 | 39.04777 | 31816 ft | 502 kts | 330° |
| 2026-04-24 05:42 | 21.94983 | 39.01902 | 31815 ft | 505 kts | 331° |
| 2026-04-24 05:43 | 22.01458 | 38.99072 | 31827 ft | 505 kts | 331° |
| 2026-04-24 05:43 | 22.07947 | 38.96237 | 31812 ft | 502 kts | 331° |
| 2026-04-24 05:44 | 22.14397 | 38.93411 | 31809 ft | 499 kts | 331° |
| 2026-04-24 05:44 | 22.20818 | 38.90590 | 31813 ft | 497 kts | 330° |
| 2026-04-24 05:45 | 22.27210 | 38.87778 | 31824 ft | 496 kts | 330° |
| 2026-04-24 05:45 | 22.33601 | 38.84964 | 31818 ft | 496 kts | 330° |
| 2026-04-24 05:46 | 22.39999 | 38.82145 | 31828 ft | 496 kts | 330° |
| 2026-04-24 05:46 | 22.46408 | 38.79318 | 31830 ft | 497 kts | 330° |
| 2026-04-24 05:47 | 22.52825 | 38.76485 | 31823 ft | 498 kts | 330° |
| 2026-04-24 05:47 | 22.59212 | 38.73663 | 31848 ft | 499 kts | 330° |
| 2026-04-24 05:48 | 22.65643 | 38.70818 | 31831 ft | 499 kts | 330° |
| 2026-04-24 05:48 | 22.72088 | 38.67962 | 31834 ft | 499 kts | 330° |
| 2026-04-24 05:49 | 22.78514 | 38.65109 | 31849 ft | 499 kts | 330° |
| 2026-04-24 05:49 | 22.84939 | 38.62254 | 31838 ft | 498 kts | 330° |
| 2026-04-24 05:50 | 22.91365 | 38.59395 | 31835 ft | 498 kts | 330° |
| 2026-04-24 05:50 | 22.97722 | 38.56565 | 31836 ft | 496 kts | 330° |
| 2026-04-24 05:51 | 23.04107 | 38.53719 | 31838 ft | 495 kts | 330° |
| 2026-04-24 05:51 | 23.10478 | 38.50876 | 31841 ft | 494 kts | 330° |
| 2026-04-24 05:52 | 23.16837 | 38.48034 | 31856 ft | 494 kts | 330° |
| 2026-04-24 05:52 | 23.23207 | 38.45184 | 31852 ft | 495 kts | 330° |
| 2026-04-24 05:53 | 23.29588 | 38.42328 | 31853 ft | 497 kts | 330° |
| 2026-04-24 05:53 | 23.35982 | 38.39463 | 31848 ft | 497 kts | 330° |
| 2026-04-24 05:54 | 23.42382 | 38.36592 | 31852 ft | 497 kts | 330° |
| 2026-04-24 05:54 | 23.48748 | 38.33734 | 31865 ft | 497 kts | 331° |
| 2026-04-24 05:55 | 23.55147 | 38.30857 | 31849 ft | 498 kts | 331° |
| 2026-04-24 05:55 | 23.61549 | 38.27975 | 31846 ft | 497 kts | 331° |
| 2026-04-24 05:56 | 23.67952 | 38.25095 | 31845 ft | 497 kts | 331° |
| 2026-04-24 05:56 | 23.74362 | 38.22219 | 31848 ft | 497 kts | 331° |
| 2026-04-24 05:57 | 23.80718 | 38.19364 | 31843 ft | 497 kts | 331° |
| 2026-04-24 05:57 | 23.87131 | 38.16477 | 31848 ft | 499 kts | 330° |
| 2026-04-24 05:58 | 23.93572 | 38.13576 | 31799 ft | 501 kts | 330° |
| 2026-04-24 05:58 | 24.00034 | 38.10662 | 31771 ft | 503 kts | 330° |
| 2026-04-24 05:59 | 24.06518 | 38.07736 | 31758 ft | 504 kts | 330° |
| 2026-04-24 05:59 | 24.13017 | 38.04772 | 31753 ft | 505 kts | 328° |
| 2026-04-24 06:00 | 24.19006 | 38.01051 | 31745 ft | 492 kts | 317° |
| 2026-04-24 06:00 | 24.24623 | 37.96763 | 31754 ft | 492 kts | 317° |
| 2026-04-24 06:01 | 24.30244 | 37.92481 | 31835 ft | 494 kts | 317° |
| 2026-04-24 06:01 | 24.33075 | 37.90338 | 32178 ft | 494 kts | 317° |
| 2026-04-24 06:01 | 24.35911 | 37.88204 | 32636 ft | 492 kts | 317° |
| 2026-04-24 06:02 | 24.38728 | 37.86087 | 33031 ft | 491 kts | 317° |
| 2026-04-24 06:02 | 24.41545 | 37.83969 | 33415 ft | 490 kts | 317° |
| 2026-04-24 06:02 | 24.44356 | 37.81854 | 33731 ft | 491 kts | 317° |
| 2026-04-24 06:02 | 24.47185 | 37.79719 | 33772 ft | 495 kts | 317° |
| 2026-04-24 06:03 | 24.52847 | 37.75451 | 33805 ft | 491 kts | 317° |
| 2026-04-24 06:03 | 24.58448 | 37.71228 | 33823 ft | 488 kts | 316° |
| 2026-04-24 06:04 | 24.64054 | 37.66988 | 33837 ft | 489 kts | 316° |
| 2026-04-24 06:04 | 24.69631 | 37.62765 | 33850 ft | 490 kts | 316° |
| 2026-04-24 06:05 | 24.75245 | 37.58512 | 33845 ft | 490 kts | 316° |
| 2026-04-24 06:05 | 24.80857 | 37.54258 | 33847 ft | 488 kts | 316° |
| 2026-04-24 06:06 | 24.86455 | 37.50011 | 33848 ft | 488 kts | 316° |
| 2026-04-24 06:06 | 24.92042 | 37.45760 | 33859 ft | 488 kts | 316° |
| 2026-04-24 06:07 | 24.97632 | 37.41505 | 33849 ft | 488 kts | 316° |
| 2026-04-24 06:07 | 25.03228 | 37.37244 | 33860 ft | 488 kts | 315° |
| 2026-04-24 06:08 | 25.08785 | 37.33005 | 33851 ft | 489 kts | 315° |
| 2026-04-24 06:08 | 25.14382 | 37.28731 | 33856 ft | 489 kts | 315° |
| 2026-04-24 06:09 | 25.19972 | 37.24458 | 33859 ft | 489 kts | 315° |
| 2026-04-24 06:09 | 25.25573 | 37.20171 | 33861 ft | 490 kts | 315° |
| 2026-04-24 06:10 | 25.30230 | 37.16602 | 33854 ft | 490 kts | 315° |
| 2026-04-24 06:11 | 25.38641 | 37.10140 | 33842 ft | 490 kts | 315° |
| 2026-04-24 06:11 | 25.44254 | 37.05833 | 33833 ft | 491 kts | 316° |
| 2026-04-24 06:12 | 25.49879 | 37.01526 | 33834 ft | 491 kts | 316° |
| 2026-04-24 06:12 | 25.55491 | 36.97220 | 33844 ft | 491 kts | 316° |
| 2026-04-24 06:13 | 25.61104 | 36.92905 | 33831 ft | 491 kts | 315° |
| 2026-04-24 06:13 | 25.66732 | 36.88575 | 33841 ft | 492 kts | 315° |
| 2026-04-24 06:14 | 25.72315 | 36.84274 | 33830 ft | 491 kts | 315° |
| 2026-04-24 06:14 | 25.77917 | 36.79939 | 33831 ft | 490 kts | 315° |
| 2026-04-24 06:15 | 25.83506 | 36.75601 | 33829 ft | 490 kts | 315° |
| 2026-04-24 06:15 | 25.89083 | 36.71268 | 33807 ft | 489 kts | 315° |
| 2026-04-24 06:16 | 25.94656 | 36.66935 | 33810 ft | 488 kts | 315° |
| 2026-04-24 06:16 | 26.00189 | 36.62629 | 33805 ft | 483 kts | 316° |
| 2026-04-24 06:17 | 26.05669 | 36.58358 | 33791 ft | 478 kts | 316° |
| 2026-04-24 06:17 | 26.11071 | 36.54140 | 33824 ft | 475 kts | 315° |
| 2026-04-24 06:18 | 26.16467 | 36.49901 | 33841 ft | 472 kts | 314° |
| 2026-04-24 06:18 | 26.21274 | 36.45067 | 33834 ft | 461 kts | 305° |
| 2026-04-24 06:19 | 26.25706 | 36.39888 | 33832 ft | 463 kts | 305° |
| 2026-04-24 06:19 | 26.30174 | 36.34687 | 33832 ft | 466 kts | 307° |
| 2026-04-24 06:20 | 26.34690 | 36.29468 | 33825 ft | 468 kts | 308° |
| 2026-04-24 06:20 | 26.39201 | 36.24265 | 33815 ft | 471 kts | 308° |
| 2026-04-24 06:21 | 26.43769 | 36.18987 | 33803 ft | 473 kts | 308° |
| 2026-04-24 06:21 | 26.48362 | 36.13674 | 33803 ft | 475 kts | 308° |
| 2026-04-24 06:22 | 26.52953 | 36.08356 | 33800 ft | 476 kts | 308° |
| 2026-04-24 06:22 | 26.57549 | 36.03025 | 33801 ft | 476 kts | 308° |
| 2026-04-24 06:23 | 26.62109 | 35.97730 | 33801 ft | 475 kts | 308° |
| 2026-04-24 06:23 | 26.66685 | 35.92410 | 33824 ft | 474 kts | 307° |
| 2026-04-24 06:24 | 26.71252 | 35.87091 | 33806 ft | 474 kts | 307° |
| 2026-04-24 06:24 | 26.75817 | 35.81766 | 33807 ft | 474 kts | 307° |
| 2026-04-24 06:25 | 26.80383 | 35.76438 | 33809 ft | 474 kts | 307° |
| 2026-04-24 06:25 | 26.84958 | 35.71094 | 33805 ft | 476 kts | 307° |
| 2026-04-24 06:26 | 26.89543 | 35.65729 | 33810 ft | 477 kts | 307° |
| 2026-04-24 06:26 | 26.94105 | 35.60385 | 33810 ft | 478 kts | 307° |
| 2026-04-24 06:27 | 26.98699 | 35.54997 | 33819 ft | 478 kts | 307° |
| 2026-04-24 06:27 | 27.03298 | 35.49596 | 33860 ft | 479 kts | 306° |
| 2026-04-24 06:28 | 27.07900 | 35.44185 | 33827 ft | 479 kts | 306° |
| 2026-04-24 06:28 | 27.12494 | 35.38776 | 33821 ft | 478 kts | 306° |
| 2026-04-24 06:29 | 27.17074 | 35.33378 | 33828 ft | 477 kts | 306° |
| 2026-04-24 06:29 | 27.21644 | 35.27983 | 33826 ft | 476 kts | 306° |
| 2026-04-24 06:30 | 27.26206 | 35.22589 | 33838 ft | 477 kts | 306° |
| 2026-04-24 06:30 | 27.30788 | 35.17164 | 33836 ft | 479 kts | 306° |
| 2026-04-24 06:31 | 27.35389 | 35.11711 | 33835 ft | 482 kts | 306° |
| 2026-04-24 06:31 | 27.39981 | 35.06263 | 33831 ft | 483 kts | 306° |
| 2026-04-24 06:32 | 27.44604 | 35.00772 | 33833 ft | 482 kts | 305° |
| 2026-04-24 06:32 | 27.49188 | 34.95322 | 33832 ft | 477 kts | 305° |
| 2026-04-24 06:33 | 27.53844 | 34.90023 | 33824 ft | 475 kts | 308° |
| 2026-04-24 06:33 | 27.58665 | 34.84960 | 33825 ft | 472 kts | 309° |
| 2026-04-24 06:34 | 27.63482 | 34.79921 | 33830 ft | 471 kts | 308° |
| 2026-04-24 06:34 | 27.68277 | 34.74856 | 33834 ft | 473 kts | 308° |
| 2026-04-24 06:35 | 27.73057 | 34.69780 | 33847 ft | 475 kts | 309° |
| 2026-04-24 06:35 | 27.77889 | 34.64646 | 33852 ft | 478 kts | 310° |
| 2026-04-24 06:36 | 27.82733 | 34.59497 | 33844 ft | 478 kts | 310° |
| 2026-04-24 06:36 | 27.87575 | 34.54342 | 33843 ft | 478 kts | 310° |
| 2026-04-24 06:37 | 27.92413 | 34.49184 | 33838 ft | 477 kts | 310° |
| 2026-04-24 06:37 | 27.97238 | 34.44035 | 33835 ft | 477 kts | 310° |
| 2026-04-24 06:38 | 28.01817 | 34.38669 | 33860 ft | 469 kts | 303° |
| 2026-04-24 06:38 | 28.05919 | 34.32942 | 33864 ft | 468 kts | 302° |
| 2026-04-24 06:39 | 28.10012 | 34.27208 | 33876 ft | 468 kts | 303° |
| 2026-04-24 06:39 | 28.14100 | 34.21521 | 33892 ft | 469 kts | 304° |
| 2026-04-24 06:40 | 28.18240 | 34.15776 | 33882 ft | 470 kts | 304° |
| 2026-04-24 06:40 | 28.22387 | 34.10019 | 33892 ft | 472 kts | 304° |
| 2026-04-24 06:41 | 28.26537 | 34.04246 | 33880 ft | 473 kts | 304° |
| 2026-04-24 06:41 | 28.30689 | 33.98466 | 33893 ft | 472 kts | 304° |
| 2026-04-24 06:42 | 28.34817 | 33.92704 | 33907 ft | 473 kts | 304° |
| 2026-04-24 06:42 | 28.38985 | 33.86881 | 33893 ft | 475 kts | 304° |
| 2026-04-24 06:43 | 28.43152 | 33.81054 | 33888 ft | 475 kts | 304° |
| 2026-04-24 06:43 | 28.47314 | 33.75224 | 33880 ft | 475 kts | 304° |
| 2026-04-24 06:44 | 28.51475 | 33.69388 | 33889 ft | 473 kts | 304° |
| 2026-04-24 06:44 | 28.55618 | 33.63567 | 33892 ft | 474 kts | 304° |
| 2026-04-24 06:45 | 28.59747 | 33.57749 | 33899 ft | 475 kts | 304° |
| 2026-04-24 06:45 | 28.63908 | 33.51881 | 33888 ft | 477 kts | 304° |
| 2026-04-24 06:46 | 28.68082 | 33.46000 | 33889 ft | 477 kts | 304° |
| 2026-04-24 06:46 | 28.72272 | 33.40090 | 34260 ft | 478 kts | 304° |
| 2026-04-24 06:46 | 28.74351 | 33.37157 | 34735 ft | 473 kts | 304° |
| 2026-04-24 06:47 | 28.76406 | 33.34258 | 35235 ft | 468 kts | 303° |
| 2026-04-24 06:47 | 28.78438 | 33.31387 | 35679 ft | 463 kts | 303° |
| 2026-04-24 06:47 | 28.80458 | 33.28528 | 35938 ft | 464 kts | 303° |
| 2026-04-24 06:48 | 28.84514 | 33.22772 | 35890 ft | 464 kts | 303° |
| 2026-04-24 06:48 | 28.88522 | 33.17084 | 35890 ft | 461 kts | 303° |
| 2026-04-24 06:49 | 28.92530 | 33.11388 | 35902 ft | 460 kts | 303° |
| 2026-04-24 06:49 | 28.96531 | 33.05694 | 35898 ft | 459 kts | 303° |
| 2026-04-24 06:50 | 29.00531 | 32.99993 | 35907 ft | 460 kts | 303° |
| 2026-04-24 06:50 | 29.04531 | 32.94285 | 35911 ft | 461 kts | 303° |
| 2026-04-24 06:51 | 29.08542 | 32.88553 | 35924 ft | 461 kts | 303° |
| 2026-04-24 06:51 | 29.12554 | 32.82813 | 35915 ft | 462 kts | 303° |
| 2026-04-24 06:52 | 29.16573 | 32.77053 | 35912 ft | 463 kts | 303° |
| 2026-04-24 06:52 | 29.20560 | 32.71333 | 35918 ft | 463 kts | 303° |
| 2026-04-24 06:53 | 29.24575 | 32.65563 | 35915 ft | 462 kts | 303° |
| 2026-04-24 06:53 | 29.28579 | 32.59802 | 35929 ft | 462 kts | 303° |
| 2026-04-24 06:54 | 29.32567 | 32.54010 | 35918 ft | 462 kts | 303° |
| 2026-04-24 06:54 | 29.36529 | 32.48225 | 35933 ft | 460 kts | 303° |
| 2026-04-24 06:55 | 29.40479 | 32.42451 | 35926 ft | 459 kts | 303° |
| 2026-04-24 06:55 | 29.44417 | 32.36691 | 35920 ft | 458 kts | 303° |
| 2026-04-24 06:56 | 29.48320 | 32.30976 | 35930 ft | 457 kts | 302° |
| 2026-04-24 06:56 | 29.52240 | 32.25228 | 35921 ft | 457 kts | 303° |
| 2026-04-24 06:57 | 29.56155 | 32.19479 | 35923 ft | 456 kts | 302° |
| 2026-04-24 06:57 | 29.60061 | 32.13734 | 35929 ft | 456 kts | 302° |
| 2026-04-24 06:58 | 29.63310 | 32.08949 | 35928 ft | 457 kts | 302° |
| 2026-04-24 06:58 | 29.67223 | 32.03179 | 35933 ft | 458 kts | 302° |
| 2026-04-24 06:59 | 29.71142 | 31.97393 | 35928 ft | 459 kts | 302° |
| 2026-04-24 06:59 | 29.75065 | 31.91592 | 35941 ft | 459 kts | 302° |
| 2026-04-24 07:00 | 29.78986 | 31.85778 | 35928 ft | 459 kts | 301° |
| 2026-04-24 07:00 | 29.82764 | 31.79931 | 35932 ft | 457 kts | 301° |
| 2026-04-24 07:01 | 29.86530 | 31.74037 | 35927 ft | 456 kts | 301° |
| 2026-04-24 07:01 | 29.90303 | 31.68164 | 35928 ft | 456 kts | 301° |
| 2026-04-24 07:02 | 29.94081 | 31.62297 | 35922 ft | 455 kts | 301° |
| 2026-04-24 07:02 | 29.97862 | 31.56440 | 35908 ft | 455 kts | 301° |
| 2026-04-24 07:03 | 30.01634 | 31.50583 | 35925 ft | 455 kts | 301° |
| 2026-04-24 07:03 | 30.05407 | 31.44713 | 35918 ft | 455 kts | 301° |
| 2026-04-24 07:04 | 30.09243 | 31.38928 | 35907 ft | 459 kts | 305° |
| 2026-04-24 07:04 | 30.13833 | 31.33720 | 35917 ft | 464 kts | 311° |
| 2026-04-24 07:05 | 30.18604 | 31.28679 | 35922 ft | 465 kts | 311° |
| 2026-04-24 07:05 | 30.23355 | 31.23622 | 35925 ft | 465 kts | 311° |
| 2026-04-24 07:06 | 30.28100 | 31.18529 | 35927 ft | 465 kts | 311° |
| 2026-04-24 07:06 | 30.32849 | 31.13414 | 35908 ft | 466 kts | 311° |
| 2026-04-24 07:07 | 30.37573 | 31.08318 | 35904 ft | 467 kts | 311° |
| 2026-04-24 07:07 | 30.44710 | 31.00608 | 35928 ft | 468 kts | 311° |
| 2026-04-24 07:08 | 30.49467 | 30.95462 | 35966 ft | 468 kts | 310° |
| 2026-04-24 07:08 | 30.54228 | 30.90304 | 35929 ft | 468 kts | 310° |
| 2026-04-24 07:09 | 30.58979 | 30.85149 | 35927 ft | 467 kts | 310° |
| 2026-04-24 07:09 | 30.63719 | 30.79999 | 35928 ft | 466 kts | 310° |
| 2026-04-24 07:10 | 30.68448 | 30.74853 | 35927 ft | 466 kts | 310° |
| 2026-04-24 07:10 | 30.73173 | 30.69705 | 35938 ft | 465 kts | 310° |
| 2026-04-24 07:11 | 30.77888 | 30.64559 | 35934 ft | 465 kts | 310° |
| 2026-04-24 07:11 | 30.82570 | 30.59442 | 35939 ft | 465 kts | 310° |
| 2026-04-24 07:12 | 30.87280 | 30.54288 | 35952 ft | 465 kts | 310° |
| 2026-04-24 07:12 | 30.91987 | 30.49129 | 35942 ft | 464 kts | 310° |
| 2026-04-24 07:13 | 30.96685 | 30.43974 | 35946 ft | 464 kts | 310° |
| 2026-04-24 07:13 | 31.01375 | 30.38819 | 35957 ft | 463 kts | 310° |
| 2026-04-24 07:14 | 31.06038 | 30.33645 | 35948 ft | 461 kts | 307° |
| 2026-04-24 07:14 | 31.09638 | 30.27647 | 35952 ft | 447 kts | 291° |
| 2026-04-24 07:15 | 31.11824 | 30.20965 | 35951 ft | 439 kts | 282° |
| 2026-04-24 07:15 | 31.13623 | 30.14137 | 35955 ft | 440 kts | 282° |
| 2026-04-24 07:16 | 31.15472 | 30.07302 | 35954 ft | 443 kts | 283° |
| 2026-04-24 07:16 | 31.17349 | 30.00444 | 35954 ft | 444 kts | 283° |
| 2026-04-24 07:17 | 31.19878 | 29.93841 | 35945 ft | 453 kts | 293° |
| 2026-04-24 07:17 | 31.23355 | 29.87642 | 35944 ft | 459 kts | 300° |
| 2026-04-24 07:18 | 31.27152 | 29.81646 | 35957 ft | 459 kts | 300° |
| 2026-04-24 07:18 | 31.30948 | 29.75633 | 35951 ft | 459 kts | 300° |
| 2026-04-24 07:19 | 31.34709 | 29.69612 | 35948 ft | 458 kts | 300° |
| 2026-04-24 07:19 | 31.38453 | 29.63586 | 35956 ft | 457 kts | 300° |
| 2026-04-24 07:20 | 31.42190 | 29.57560 | 35958 ft | 456 kts | 300° |
| 2026-04-24 07:20 | 31.45917 | 29.51545 | 35971 ft | 456 kts | 300° |
| 2026-04-24 07:21 | 31.49638 | 29.45528 | 35966 ft | 456 kts | 300° |
| 2026-04-24 07:21 | 31.53332 | 29.39548 | 35964 ft | 456 kts | 300° |
| 2026-04-24 07:22 | 31.57054 | 29.33513 | 35967 ft | 456 kts | 300° |
| 2026-04-24 07:22 | 31.60760 | 29.27480 | 35968 ft | 456 kts | 299° |
| 2026-04-24 07:23 | 31.64447 | 29.21429 | 35981 ft | 456 kts | 300° |
| 2026-04-24 07:23 | 31.68133 | 29.15372 | 35987 ft | 456 kts | 300° |
| 2026-04-24 07:24 | 31.71874 | 29.09349 | 35969 ft | 459 kts | 304° |
| 2026-04-24 07:24 | 31.76357 | 29.03946 | 35968 ft | 467 kts | 314° |
| 2026-04-24 07:25 | 31.81398 | 28.99120 | 35973 ft | 467 kts | 315° |
| 2026-04-24 07:25 | 31.86420 | 28.94351 | 35981 ft | 467 kts | 315° |
| 2026-04-24 07:26 | 31.91453 | 28.89527 | 35968 ft | 466 kts | 315° |
| 2026-04-24 07:26 | 31.96465 | 28.84691 | 35972 ft | 465 kts | 315° |
| 2026-04-24 07:27 | 32.01464 | 28.79851 | 35997 ft | 465 kts | 315° |
| 2026-04-24 07:27 | 32.06460 | 28.75007 | 35971 ft | 464 kts | 315° |
| 2026-04-24 07:28 | 32.11441 | 28.70172 | 35964 ft | 463 kts | 315° |
| 2026-04-24 07:28 | 32.16413 | 28.65339 | 35978 ft | 463 kts | 315° |
| 2026-04-24 07:29 | 32.21377 | 28.60507 | 35968 ft | 462 kts | 315° |
| 2026-04-24 07:29 | 32.26342 | 28.55667 | 35970 ft | 462 kts | 315° |
| 2026-04-24 07:30 | 32.31273 | 28.50853 | 35969 ft | 462 kts | 315° |
| 2026-04-24 07:30 | 32.36237 | 28.45998 | 35974 ft | 463 kts | 315° |
| 2026-04-24 07:31 | 32.41207 | 28.41133 | 35965 ft | 463 kts | 315° |
| 2026-04-24 07:31 | 32.46176 | 28.36261 | 35978 ft | 463 kts | 315° |
| 2026-04-24 07:32 | 32.51142 | 28.31383 | 35966 ft | 464 kts | 315° |
| 2026-04-24 07:32 | 32.56110 | 28.26498 | 35964 ft | 464 kts | 315° |
| 2026-04-24 07:33 | 32.61080 | 28.21603 | 35964 ft | 464 kts | 315° |
| 2026-04-24 07:33 | 32.66013 | 28.16737 | 35964 ft | 464 kts | 315° |
| 2026-04-24 07:34 | 32.70982 | 28.11828 | 35961 ft | 464 kts | 315° |
| 2026-04-24 07:34 | 32.75941 | 28.06922 | 35970 ft | 464 kts | 315° |
| 2026-04-24 07:35 | 32.80910 | 28.01998 | 35955 ft | 465 kts | 315° |
| 2026-04-24 07:35 | 32.85878 | 27.97067 | 35950 ft | 465 kts | 315° |
| 2026-04-24 07:36 | 32.90846 | 27.92131 | 35972 ft | 465 kts | 315° |
| 2026-04-24 07:36 | 32.95815 | 27.87185 | 35978 ft | 466 kts | 315° |
| 2026-04-24 07:37 | 33.00783 | 27.82232 | 35962 ft | 466 kts | 315° |
| 2026-04-24 07:37 | 33.05753 | 27.77270 | 35964 ft | 466 kts | 314° |
| 2026-04-24 07:38 | 33.10718 | 27.72306 | 35960 ft | 466 kts | 314° |
| 2026-04-24 07:38 | 33.15648 | 27.67369 | 35957 ft | 465 kts | 314° |
| 2026-04-24 07:39 | 33.20602 | 27.62400 | 35959 ft | 465 kts | 314° |
| 2026-04-24 07:39 | 33.25556 | 27.57424 | 35961 ft | 465 kts | 314° |
| 2026-04-24 07:40 | 33.30513 | 27.52437 | 35971 ft | 465 kts | 314° |
| 2026-04-24 07:40 | 33.35463 | 27.47449 | 35979 ft | 465 kts | 314° |
| 2026-04-24 07:41 | 33.40415 | 27.42452 | 35968 ft | 465 kts | 314° |
| 2026-04-24 07:41 | 33.45358 | 27.37456 | 35965 ft | 465 kts | 314° |
| 2026-04-24 07:42 | 33.50294 | 27.32460 | 35967 ft | 464 kts | 314° |
| 2026-04-24 07:42 | 33.55195 | 27.27491 | 35967 ft | 464 kts | 314° |
| 2026-04-24 07:43 | 33.60119 | 27.22491 | 35981 ft | 464 kts | 314° |
| 2026-04-24 07:43 | 33.65044 | 27.17482 | 35972 ft | 463 kts | 314° |
| 2026-04-24 07:44 | 33.69953 | 27.12482 | 35961 ft | 463 kts | 314° |
| 2026-04-24 07:44 | 33.74856 | 27.07481 | 35965 ft | 462 kts | 314° |
| 2026-04-24 07:45 | 33.79747 | 27.02483 | 35979 ft | 461 kts | 314° |
| 2026-04-24 07:45 | 33.84628 | 26.97487 | 35970 ft | 461 kts | 314° |
| 2026-04-24 07:46 | 33.89508 | 26.92485 | 35989 ft | 460 kts | 313° |
| 2026-04-24 07:46 | 33.94382 | 26.87480 | 35977 ft | 461 kts | 313° |
| 2026-04-24 07:47 | 33.99253 | 26.82472 | 35984 ft | 461 kts | 313° |
| 2026-04-24 07:47 | 34.03381 | 26.78390 | 35979 ft | 463 kts | 316° |
| 2026-04-24 07:48 | 34.09356 | 26.72930 | 35980 ft | 463 kts | 316° |
| 2026-04-24 07:48 | 34.14494 | 26.68238 | 35981 ft | 463 kts | 316° |
| 2026-04-24 07:49 | 34.19606 | 26.63508 | 36012 ft | 463 kts | 316° |
| 2026-04-24 07:49 | 34.23881 | 26.59524 | 35989 ft | 463 kts | 316° |
| 2026-04-24 07:50 | 34.28943 | 26.54795 | 36000 ft | 463 kts | 315° |
| 2026-04-24 07:50 | 34.34054 | 26.50016 | 35991 ft | 464 kts | 315° |
| 2026-04-24 07:51 | 34.39162 | 26.45232 | 35988 ft | 464 kts | 315° |
| 2026-04-24 07:51 | 34.44265 | 26.40448 | 35992 ft | 464 kts | 315° |
| 2026-04-24 07:52 | 34.49372 | 26.35651 | 36019 ft | 464 kts | 315° |
| 2026-04-24 07:52 | 34.54477 | 26.30848 | 35998 ft | 465 kts | 315° |
| 2026-04-24 07:53 | 34.59584 | 26.26037 | 35993 ft | 465 kts | 315° |
| 2026-04-24 07:53 | 34.64691 | 26.21217 | 36006 ft | 465 kts | 315° |
| 2026-04-24 07:54 | 34.69770 | 26.16415 | 36000 ft | 466 kts | 315° |
| 2026-04-24 07:54 | 34.74890 | 26.11568 | 35987 ft | 466 kts | 315° |
| 2026-04-24 07:55 | 34.80005 | 26.06718 | 36009 ft | 465 kts | 315° |
| 2026-04-24 07:55 | 34.85109 | 26.01870 | 36005 ft | 465 kts | 315° |
| 2026-04-24 07:56 | 34.90202 | 25.97025 | 36018 ft | 464 kts | 315° |
| 2026-04-24 07:56 | 34.95293 | 25.92173 | 36004 ft | 464 kts | 315° |
| 2026-04-24 07:57 | 35.00327 | 25.87368 | 36001 ft | 462 kts | 315° |
| 2026-04-24 07:57 | 35.05386 | 25.82530 | 36001 ft | 462 kts | 315° |
| 2026-04-24 07:58 | 35.10439 | 25.77691 | 36004 ft | 461 kts | 315° |
| 2026-04-24 07:58 | 35.15473 | 25.72842 | 36012 ft | 460 kts | 315° |
| 2026-04-24 07:59 | 35.20491 | 25.67999 | 36017 ft | 460 kts | 315° |
| 2026-04-24 07:59 | 35.25526 | 25.63146 | 36034 ft | 460 kts | 315° |
| 2026-04-24 08:00 | 35.30563 | 25.58295 | 36021 ft | 461 kts | 315° |
| 2026-04-24 08:00 | 35.35600 | 25.53434 | 36017 ft | 461 kts | 314° |
| 2026-04-24 08:01 | 35.40602 | 25.48598 | 36027 ft | 461 kts | 314° |
| 2026-04-24 08:01 | 35.45646 | 25.43711 | 36021 ft | 463 kts | 314° |
| 2026-04-24 08:02 | 35.50699 | 25.38808 | 36013 ft | 463 kts | 314° |
| 2026-04-24 08:02 | 35.55749 | 25.33900 | 36019 ft | 462 kts | 314° |
| 2026-04-24 08:03 | 35.60754 | 25.29027 | 36014 ft | 463 kts | 314° |
| 2026-04-24 08:03 | 35.65798 | 25.24108 | 36016 ft | 463 kts | 314° |
| 2026-04-24 08:04 | 35.70847 | 25.19177 | 36018 ft | 463 kts | 314° |
| 2026-04-24 08:04 | 35.75901 | 25.14233 | 36012 ft | 464 kts | 314° |
| 2026-04-24 08:05 | 35.80952 | 25.09282 | 36016 ft | 464 kts | 314° |
| 2026-04-24 08:05 | 35.85997 | 25.04329 | 36019 ft | 464 kts | 314° |
| 2026-04-24 08:06 | 35.91014 | 24.99395 | 36036 ft | 465 kts | 314° |
| 2026-04-24 08:06 | 35.96069 | 24.94415 | 36046 ft | 465 kts | 314° |
| 2026-04-24 08:07 | 36.01127 | 24.89423 | 36026 ft | 466 kts | 314° |
| 2026-04-24 08:07 | 36.06190 | 24.84421 | 36017 ft | 465 kts | 314° |
| 2026-04-24 08:08 | 36.11233 | 24.79433 | 36018 ft | 465 kts | 314° |
| 2026-04-24 08:09 | 36.18806 | 24.71928 | 36025 ft | 464 kts | 314° |
| 2026-04-24 08:09 | 36.23840 | 24.66927 | 36021 ft | 464 kts | 314° |
| 2026-04-24 08:10 | 36.28876 | 24.61913 | 36031 ft | 464 kts | 314° |
| 2026-04-24 08:10 | 36.33912 | 24.56893 | 36026 ft | 464 kts | 314° |
| 2026-04-24 08:11 | 36.38943 | 24.51868 | 36026 ft | 464 kts | 314° |
| 2026-04-24 08:11 | 36.43937 | 24.46871 | 36031 ft | 464 kts | 314° |
| 2026-04-24 08:12 | 36.48971 | 24.41827 | 36031 ft | 464 kts | 314° |
| 2026-04-24 08:12 | 36.53985 | 24.36788 | 36056 ft | 465 kts | 314° |
| 2026-04-24 08:13 | 36.59030 | 24.31707 | 36036 ft | 466 kts | 314° |
| 2026-04-24 08:13 | 36.64065 | 24.26629 | 36030 ft | 466 kts | 314° |
| 2026-04-24 08:14 | 36.69106 | 24.21535 | 36035 ft | 466 kts | 314° |
| 2026-04-24 08:14 | 36.74145 | 24.16434 | 36036 ft | 466 kts | 314° |
| 2026-04-24 08:15 | 36.79176 | 24.11332 | 36039 ft | 466 kts | 314° |
| 2026-04-24 08:15 | 36.84176 | 24.06251 | 36066 ft | 467 kts | 315° |
| 2026-04-24 08:16 | 36.89219 | 24.01119 | 36050 ft | 469 kts | 315° |
| 2026-04-24 08:16 | 36.94292 | 23.95952 | 36047 ft | 471 kts | 315° |
| 2026-04-24 08:17 | 36.99372 | 23.90774 | 36050 ft | 472 kts | 315° |
| 2026-04-24 08:17 | 37.04465 | 23.85574 | 36047 ft | 473 kts | 315° |
| 2026-04-24 08:18 | 37.09557 | 23.80364 | 36045 ft | 473 kts | 315° |
| 2026-04-24 08:18 | 37.14655 | 23.75136 | 36043 ft | 473 kts | 316° |
| 2026-04-24 08:19 | 37.19757 | 23.69895 | 36055 ft | 475 kts | 317° |
| 2026-04-24 08:19 | 37.24871 | 23.64633 | 36051 ft | 476 kts | 317° |
| 2026-04-24 08:20 | 37.29999 | 23.59348 | 36051 ft | 477 kts | 317° |
| 2026-04-24 08:20 | 37.35127 | 23.54052 | 36052 ft | 478 kts | 317° |
| 2026-04-24 08:21 | 37.40227 | 23.48776 | 36055 ft | 478 kts | 318° |
| 2026-04-24 08:21 | 37.45366 | 23.43448 | 36051 ft | 479 kts | 318° |
| 2026-04-24 08:22 | 37.50506 | 23.38112 | 36049 ft | 480 kts | 319° |
| 2026-04-24 08:22 | 37.55665 | 23.32745 | 36051 ft | 480 kts | 319° |
| 2026-04-24 08:23 | 37.60815 | 23.27377 | 36051 ft | 480 kts | 319° |
| 2026-04-24 08:23 | 37.65970 | 23.21995 | 36053 ft | 480 kts | 319° |
| 2026-04-24 08:24 | 37.71118 | 23.16608 | 36056 ft | 481 kts | 319° |
| 2026-04-24 08:24 | 37.76242 | 23.11239 | 36053 ft | 481 kts | 319° |
| 2026-04-24 08:25 | 37.81389 | 23.05834 | 36056 ft | 480 kts | 319° |
| 2026-04-24 08:25 | 37.86523 | 23.00432 | 36054 ft | 480 kts | 319° |
| 2026-04-24 08:26 | 37.91649 | 22.95029 | 36054 ft | 479 kts | 320° |
| 2026-04-24 08:26 | 37.96728 | 22.89566 | 36053 ft | 479 kts | 320° |
| 2026-04-24 08:27 | 38.01746 | 22.83978 | 36061 ft | 480 kts | 319° |
| 2026-04-24 08:27 | 38.06766 | 22.78366 | 36061 ft | 481 kts | 319° |
| 2026-04-24 08:28 | 38.11768 | 22.72788 | 36059 ft | 482 kts | 320° |
| 2026-04-24 08:28 | 38.16811 | 22.67168 | 36061 ft | 483 kts | 320° |
| 2026-04-24 08:29 | 38.21868 | 22.61525 | 36060 ft | 484 kts | 320° |
| 2026-04-24 08:29 | 38.26921 | 22.55872 | 36062 ft | 483 kts | 320° |
| 2026-04-24 08:30 | 38.31966 | 22.50219 | 36055 ft | 482 kts | 320° |
| 2026-04-24 08:30 | 38.36998 | 22.44570 | 36051 ft | 481 kts | 320° |
| 2026-04-24 08:31 | 38.41979 | 22.38965 | 36055 ft | 480 kts | 320° |
| 2026-04-24 08:31 | 38.46977 | 22.33333 | 36063 ft | 479 kts | 320° |
| 2026-04-24 08:32 | 38.51966 | 22.27698 | 36061 ft | 479 kts | 320° |
| 2026-04-24 08:32 | 38.56956 | 22.22053 | 36081 ft | 478 kts | 320° |
| 2026-04-24 08:33 | 38.61936 | 22.16407 | 36063 ft | 479 kts | 320° |
| 2026-04-24 08:33 | 38.66916 | 22.10749 | 36057 ft | 478 kts | 320° |
| 2026-04-24 08:34 | 38.71885 | 22.05095 | 36051 ft | 478 kts | 320° |
| 2026-04-24 08:34 | 38.76855 | 21.99428 | 36050 ft | 478 kts | 320° |
| 2026-04-24 08:35 | 38.81786 | 21.93795 | 36047 ft | 478 kts | 320° |
| 2026-04-24 08:35 | 38.86756 | 21.88106 | 36041 ft | 479 kts | 320° |
| 2026-04-24 08:36 | 38.91719 | 21.82413 | 36054 ft | 478 kts | 320° |
| 2026-04-24 08:36 | 38.96669 | 21.76725 | 36057 ft | 477 kts | 320° |
| 2026-04-24 08:37 | 39.01567 | 21.71084 | 36069 ft | 475 kts | 320° |
| 2026-04-24 08:37 | 39.06479 | 21.65417 | 36060 ft | 475 kts | 320° |